<?xml version='1.0' encoding='UTF-8'?><gpx version="1.1" creator="JPX - https://github.com/jenetics/jpx" xmlns="http://www.topografix.com/GPX/1/1"><trk><trkseg><trkpt lat="45.5657155" lon="10.8162833"><ele>145.0</ele><time>2026-04-22T17:31:47.278Z</time></trkpt><trkpt lat="45.565535" lon="10.8161997"><ele>145.0</ele><time>2026-04-22T17:31:50.277Z</time></trkpt><trkpt lat="45.565655" lon="10.8162179"><ele>145.0</ele><time>2026-04-22T17:31:52.277Z</time></trkpt><trkpt lat="45.5656113" lon="10.816148"><ele>145.0</ele><time>2026-04-22T17:32:33.277Z</time></trkpt><trkpt lat="45.5655779" lon="10.8160697"><ele>145.0</ele><time>2026-04-22T17:32:35.278Z</time></trkpt><trkpt lat="45.5655042" lon="10.8160551"><ele>145.0</ele><time>2026-04-22T17:32:41.277Z</time></trkpt><trkpt lat="45.5654108" lon="10.8160338"><ele>145.0</ele><time>2026-04-22T17:32:48.277Z</time></trkpt><trkpt lat="45.5653519" lon="10.815986"><ele>145.0</ele><time>2026-04-22T17:32:51.277Z</time></trkpt><trkpt lat="45.5652961" lon="10.8159334"><ele>145.0</ele><time>2026-04-22T17:32:54.277Z</time></trkpt><trkpt lat="45.5652372" lon="10.815891"><ele>145.0</ele><time>2026-04-22T17:35:17.278Z</time></trkpt><trkpt lat="45.5651718" lon="10.8159042"><ele>145.0</ele><time>2026-04-22T17:35:32.277Z</time></trkpt><trkpt lat="45.5651068" lon="10.8158861"><ele>145.0</ele><time>2026-04-22T17:36:08.278Z</time></trkpt><trkpt lat="45.5650552" lon="10.8158333"><ele>146.33333333333334</ele><time>2026-04-22T17:37:13.277Z</time></trkpt><trkpt lat="45.5651059" lon="10.8159469"><ele>147.66666666666669</ele><time>2026-04-22T17:43:31.278Z</time></trkpt><trkpt lat="45.5651221" lon="10.8160509"><ele>149.0</ele><time>2026-04-22T17:43:36.277Z</time></trkpt><trkpt lat="45.5650703" lon="10.8161602"><ele>150.33333333333334</ele><time>2026-04-22T17:43:53.28Z</time></trkpt><trkpt lat="45.5649927" lon="10.8161911"><ele>151.66666666666666</ele><time>2026-04-22T17:43:57.279Z</time></trkpt><trkpt lat="45.5649147" lon="10.8161532"><ele>153.0</ele><time>2026-04-22T17:44:02.275Z</time></trkpt><trkpt lat="45.5648562" lon="10.8161065"><ele>153.0</ele><time>2026-04-22T17:44:05.272Z</time></trkpt><trkpt lat="45.564798" lon="10.8160695"><ele>153.0</ele><time>2026-04-22T17:44:08.279Z</time></trkpt><trkpt lat="45.5647433" lon="10.8160242"><ele>153.0</ele><time>2026-04-22T17:44:12.28Z</time></trkpt><trkpt lat="45.5646854" lon="10.8159596"><ele>153.0</ele><time>2026-04-22T17:44:19.278Z</time></trkpt><trkpt lat="45.5646299" lon="10.8158861"><ele>153.0</ele><time>2026-04-22T17:44:23.277Z</time></trkpt><trkpt lat="45.5645501" lon="10.8156649"><ele>158.0</ele><time>2026-04-22T17:44:28.276Z</time></trkpt><trkpt lat="45.5644856" lon="10.8154118"><ele>163.0</ele><time>2026-04-22T17:44:29.283Z</time></trkpt><trkpt lat="45.5644504" lon="10.8152468"><ele>168.0</ele><time>2026-04-22T17:44:30.225Z</time></trkpt><trkpt lat="45.5644228" lon="10.8151212"><ele>173.0</ele><time>2026-04-22T17:44:31.311Z</time></trkpt><trkpt lat="45.5643387" lon="10.8150845"><ele>175.33333333333331</ele><time>2026-04-22T17:44:32.246Z</time></trkpt><trkpt lat="45.5642593" lon="10.815044"><ele>177.66666666666666</ele><time>2026-04-22T17:44:33.276Z</time></trkpt><trkpt lat="45.5641774" lon="10.8149302"><ele>180.0</ele><time>2026-04-22T17:44:35.282Z</time></trkpt><trkpt lat="45.5641136" lon="10.814891"><ele>182.33333333333334</ele><time>2026-04-22T17:46:25.275Z</time></trkpt><trkpt lat="45.5641317" lon="10.8147866"><ele>184.66666666666669</ele><time>2026-04-22T17:46:36.273Z</time></trkpt><trkpt lat="45.5640735" lon="10.814697"><ele>187.0</ele><time>2026-04-22T17:46:38.278Z</time></trkpt><trkpt lat="45.5641397" lon="10.8145621"><ele>187.0</ele><time>2026-04-22T17:46:41.275Z</time></trkpt><trkpt lat="45.5641882" lon="10.8145035"><ele>187.0</ele><time>2026-04-22T17:46:42.278Z</time></trkpt><trkpt lat="45.564254" lon="10.8144264"><ele>187.0</ele><time>2026-04-22T17:46:43.277Z</time></trkpt><trkpt lat="45.5643121" lon="10.8143732"><ele>187.0</ele><time>2026-04-22T17:46:44.284Z</time></trkpt><trkpt lat="45.564387" lon="10.8142742"><ele>187.0</ele><time>2026-04-22T17:46:46.282Z</time></trkpt><trkpt lat="45.5643649" lon="10.8141256"><ele>187.0</ele><time>2026-04-22T17:46:48.281Z</time></trkpt><trkpt lat="45.5643134" lon="10.8140068"><ele>187.57142857142856</ele><time>2026-04-22T17:46:49.277Z</time></trkpt><trkpt lat="45.5642765" lon="10.813914"><ele>188.14285714285717</ele><time>2026-04-22T17:46:50.275Z</time></trkpt><trkpt lat="45.5642345" lon="10.8138378"><ele>188.71428571428572</ele><time>2026-04-22T17:46:51.285Z</time></trkpt><trkpt lat="45.5641978" lon="10.8137353"><ele>189.28571428571428</ele><time>2026-04-22T17:46:53.278Z</time></trkpt><trkpt lat="45.5641177" lon="10.813744"><ele>189.85714285714283</ele><time>2026-04-22T17:47:03.278Z</time></trkpt><trkpt lat="45.5640709" lon="10.813808"><ele>190.42857142857144</ele><time>2026-04-22T17:47:04.276Z</time></trkpt><trkpt lat="45.5640146" lon="10.8138672"><ele>191.0</ele><time>2026-04-22T17:47:05.274Z</time></trkpt><trkpt lat="45.5639453" lon="10.8139447"><ele>191.0</ele><time>2026-04-22T17:47:06.274Z</time></trkpt><trkpt lat="45.5638838" lon="10.8140182"><ele>191.0</ele><time>2026-04-22T17:47:07.272Z</time></trkpt><trkpt lat="45.5638077" lon="10.8141011"><ele>191.0</ele><time>2026-04-22T17:47:08.274Z</time></trkpt><trkpt lat="45.563716" lon="10.8141949"><ele>191.0</ele><time>2026-04-22T17:47:09.282Z</time></trkpt><trkpt lat="45.5636409" lon="10.8142719"><ele>191.0</ele><time>2026-04-22T17:47:10.285Z</time></trkpt><trkpt lat="45.5635701" lon="10.8143398"><ele>190.83333333333331</ele><time>2026-04-22T17:47:11.276Z</time></trkpt><trkpt lat="45.5635076" lon="10.8144048"><ele>190.66666666666666</ele><time>2026-04-22T17:47:12.283Z</time></trkpt><trkpt lat="45.5634437" lon="10.8144783"><ele>190.5</ele><time>2026-04-22T17:47:13.281Z</time></trkpt><trkpt lat="45.5633841" lon="10.8145388"><ele>190.33333333333334</ele><time>2026-04-22T17:47:14.283Z</time></trkpt><trkpt lat="45.5632992" lon="10.8146356"><ele>190.16666666666669</ele><time>2026-04-22T17:47:16.278Z</time></trkpt><trkpt lat="45.5632396" lon="10.81472"><ele>190.0</ele><time>2026-04-22T17:47:18.278Z</time></trkpt><trkpt lat="45.5631832" lon="10.8147793"><ele>190.0</ele><time>2026-04-22T17:47:21.276Z</time></trkpt><trkpt lat="45.5631016" lon="10.8147845"><ele>190.0</ele><time>2026-04-22T17:52:15.283Z</time></trkpt><trkpt lat="45.563017" lon="10.8147948"><ele>190.0</ele><time>2026-04-22T17:52:18.282Z</time></trkpt><trkpt lat="45.5629347" lon="10.8148155"><ele>190.0</ele><time>2026-04-22T17:52:21.282Z</time></trkpt><trkpt lat="45.5629059" lon="10.8147233"><ele>190.0</ele><time>2026-04-22T17:52:26.283Z</time></trkpt><trkpt lat="45.5628406" lon="10.814696"><ele>190.0</ele><time>2026-04-22T17:52:35.282Z</time></trkpt><trkpt lat="45.5629038" lon="10.8147283"><ele>190.0</ele><time>2026-04-22T17:52:47.283Z</time></trkpt><trkpt lat="45.5629516" lon="10.8146574"><ele>190.0</ele><time>2026-04-22T17:54:31.283Z</time></trkpt><trkpt lat="45.5629526" lon="10.8145305"><ele>190.0</ele><time>2026-04-22T18:01:13.283Z</time></trkpt><trkpt lat="45.5629869" lon="10.8144285"><ele>190.0</ele><time>2026-04-22T18:01:14.283Z</time></trkpt><trkpt lat="45.5630412" lon="10.8143298"><ele>190.0</ele><time>2026-04-22T18:01:15.283Z</time></trkpt><trkpt lat="45.5631122" lon="10.8142215"><ele>190.0</ele><time>2026-04-22T18:01:16.283Z</time></trkpt><trkpt lat="45.5631934" lon="10.8141059"><ele>193.0</ele><time>2026-04-22T18:01:17.283Z</time></trkpt><trkpt lat="45.5633093" lon="10.8139554"><ele>196.0</ele><time>2026-04-22T18:01:18.283Z</time></trkpt><trkpt lat="45.5634323" lon="10.8137927"><ele>199.0</ele><time>2026-04-22T18:01:19.283Z</time></trkpt><trkpt lat="45.5635649" lon="10.8135975"><ele>198.33333333333331</ele><time>2026-04-22T18:01:20.283Z</time></trkpt><trkpt lat="45.5636936" lon="10.8134019"><ele>197.66666666666669</ele><time>2026-04-22T18:01:21.283Z</time></trkpt><trkpt lat="45.5638059" lon="10.8132388"><ele>197.0</ele><time>2026-04-22T18:01:22.283Z</time></trkpt><trkpt lat="45.5639039" lon="10.8130971"><ele>197.0</ele><time>2026-04-22T18:01:23.283Z</time></trkpt><trkpt lat="45.5640175" lon="10.8129836"><ele>197.0</ele><time>2026-04-22T18:01:24.283Z</time></trkpt><trkpt lat="45.5641557" lon="10.8128524"><ele>197.0</ele><time>2026-04-22T18:01:25.283Z</time></trkpt><trkpt lat="45.5643146" lon="10.8127083"><ele>197.33333333333334</ele><time>2026-04-22T18:01:26.283Z</time></trkpt><trkpt lat="45.5644706" lon="10.8125951"><ele>197.66666666666669</ele><time>2026-04-22T18:01:27.283Z</time></trkpt><trkpt lat="45.5646155" lon="10.8125186"><ele>198.0</ele><time>2026-04-22T18:01:28.283Z</time></trkpt><trkpt lat="45.5647441" lon="10.8124329"><ele>198.0</ele><time>2026-04-22T18:01:29.282Z</time></trkpt><trkpt lat="45.5648602" lon="10.8123482"><ele>198.0</ele><time>2026-04-22T18:01:30.283Z</time></trkpt><trkpt lat="45.5649727" lon="10.8122768"><ele>198.0</ele><time>2026-04-22T18:01:31.283Z</time></trkpt><trkpt lat="45.5651006" lon="10.8121971"><ele>198.0</ele><time>2026-04-22T18:01:32.282Z</time></trkpt><trkpt lat="45.5652579" lon="10.8120908"><ele>195.66666666666666</ele><time>2026-04-22T18:01:33.283Z</time></trkpt><trkpt lat="45.5654358" lon="10.8119966"><ele>193.33333333333331</ele><time>2026-04-22T18:01:34.283Z</time></trkpt><trkpt lat="45.5656149" lon="10.811927"><ele>191.0</ele><time>2026-04-22T18:01:35.283Z</time></trkpt><trkpt lat="45.5657906" lon="10.8118722"><ele>191.0</ele><time>2026-04-22T18:01:36.283Z</time></trkpt><trkpt lat="45.5659749" lon="10.8118295"><ele>191.0</ele><time>2026-04-22T18:01:37.283Z</time></trkpt><trkpt lat="45.5661513" lon="10.8117927"><ele>191.0</ele><time>2026-04-22T18:01:38.283Z</time></trkpt><trkpt lat="45.5663131" lon="10.8117543"><ele>193.0</ele><time>2026-04-22T18:01:39.283Z</time></trkpt><trkpt lat="45.566433" lon="10.8117299"><ele>195.0</ele><time>2026-04-22T18:01:40.283Z</time></trkpt><trkpt lat="45.5665303" lon="10.8117134"><ele>197.0</ele><time>2026-04-22T18:01:41.283Z</time></trkpt><trkpt lat="45.5666098" lon="10.8116986"><ele>199.0</ele><time>2026-04-22T18:01:42.283Z</time></trkpt><trkpt lat="45.5666772" lon="10.8116846"><ele>201.0</ele><time>2026-04-22T18:01:59.283Z</time></trkpt><trkpt lat="45.5667668" lon="10.8116642"><ele>201.0</ele><time>2026-04-22T18:02:01.283Z</time></trkpt><trkpt lat="45.5668403" lon="10.8116499"><ele>201.0</ele><time>2026-04-22T18:02:02.283Z</time></trkpt><trkpt lat="45.5669328" lon="10.8116304"><ele>201.0</ele><time>2026-04-22T18:02:03.283Z</time></trkpt><trkpt lat="45.5670427" lon="10.8116048"><ele>201.0</ele><time>2026-04-22T18:02:04.283Z</time></trkpt><trkpt lat="45.5671406" lon="10.8115729"><ele>201.0</ele><time>2026-04-22T18:02:05.283Z</time></trkpt><trkpt lat="45.5672396" lon="10.8115279"><ele>199.20000000000002</ele><time>2026-04-22T18:02:06.283Z</time></trkpt><trkpt lat="45.5673142" lon="10.8114602"><ele>197.4</ele><time>2026-04-22T18:02:07.283Z</time></trkpt><trkpt lat="45.5674026" lon="10.8113709"><ele>195.6</ele><time>2026-04-22T18:02:08.283Z</time></trkpt><trkpt lat="45.5674712" lon="10.811273"><ele>193.8</ele><time>2026-04-22T18:02:09.283Z</time></trkpt><trkpt lat="45.5675286" lon="10.8111924"><ele>192.0</ele><time>2026-04-22T18:02:10.283Z</time></trkpt><trkpt lat="45.5675918" lon="10.8111315"><ele>192.0</ele><time>2026-04-22T18:02:11.283Z</time></trkpt><trkpt lat="45.5676546" lon="10.8110838"><ele>192.0</ele><time>2026-04-22T18:02:12.283Z</time></trkpt><trkpt lat="45.5677278" lon="10.8110963"><ele>192.0</ele><time>2026-04-22T18:02:13.283Z</time></trkpt><trkpt lat="45.5678096" lon="10.8111542"><ele>192.0</ele><time>2026-04-22T18:02:14.283Z</time></trkpt><trkpt lat="45.567919" lon="10.8112596"><ele>192.0</ele><time>2026-04-22T18:02:15.283Z</time></trkpt><trkpt lat="45.5680474" lon="10.8113672"><ele>192.0</ele><time>2026-04-22T18:02:16.282Z</time></trkpt><trkpt lat="45.568206" lon="10.8114867"><ele>192.0</ele><time>2026-04-22T18:02:17.283Z</time></trkpt><trkpt lat="45.5683723" lon="10.8116264"><ele>192.0</ele><time>2026-04-22T18:02:18.283Z</time></trkpt><trkpt lat="45.5685286" lon="10.8117675"><ele>191.66666666666666</ele><time>2026-04-22T18:02:19.283Z</time></trkpt><trkpt lat="45.5686757" lon="10.8118992"><ele>191.33333333333331</ele><time>2026-04-22T18:02:20.283Z</time></trkpt><trkpt lat="45.5688292" lon="10.8120149"><ele>191.0</ele><time>2026-04-22T18:02:21.283Z</time></trkpt><trkpt lat="45.5689594" lon="10.8121113"><ele>190.75</ele><time>2026-04-22T18:02:22.283Z</time></trkpt><trkpt lat="45.5690734" lon="10.8121948"><ele>190.5</ele><time>2026-04-22T18:02:23.283Z</time></trkpt><trkpt lat="45.5691769" lon="10.8122914"><ele>190.25</ele><time>2026-04-22T18:02:24.282Z</time></trkpt><trkpt lat="45.5692886" lon="10.8123646"><ele>190.0</ele><time>2026-04-22T18:02:25.283Z</time></trkpt><trkpt lat="45.5694211" lon="10.8124022"><ele>189.25</ele><time>2026-04-22T18:02:26.283Z</time></trkpt><trkpt lat="45.5695507" lon="10.8124075"><ele>188.5</ele><time>2026-04-22T18:02:27.283Z</time></trkpt><trkpt lat="45.5696919" lon="10.8123955"><ele>187.75</ele><time>2026-04-22T18:02:28.283Z</time></trkpt><trkpt lat="45.5698419" lon="10.8123758"><ele>187.0</ele><time>2026-04-22T18:02:29.283Z</time></trkpt><trkpt lat="45.5699815" lon="10.8123586"><ele>187.0</ele><time>2026-04-22T18:02:30.283Z</time></trkpt><trkpt lat="45.5701195" lon="10.8123611"><ele>187.0</ele><time>2026-04-22T18:02:31.283Z</time></trkpt><trkpt lat="45.5702335" lon="10.812355"><ele>187.0</ele><time>2026-04-22T18:02:32.283Z</time></trkpt><trkpt lat="45.5703462" lon="10.8123389"><ele>187.0</ele><time>2026-04-22T18:02:33.283Z</time></trkpt><trkpt lat="45.5704517" lon="10.812306"><ele>188.25</ele><time>2026-04-22T18:02:34.283Z</time></trkpt><trkpt lat="45.5705725" lon="10.8122322"><ele>189.5</ele><time>2026-04-22T18:02:35.283Z</time></trkpt><trkpt lat="45.5707087" lon="10.8121549"><ele>190.75</ele><time>2026-04-22T18:02:36.283Z</time></trkpt><trkpt lat="45.5708335" lon="10.8121046"><ele>192.0</ele><time>2026-04-22T18:02:37.283Z</time></trkpt><trkpt lat="45.5709212" lon="10.8120612"><ele>192.0</ele><time>2026-04-22T18:02:38.282Z</time></trkpt><trkpt lat="45.5710124" lon="10.8120295"><ele>192.0</ele><time>2026-04-22T18:02:39.283Z</time></trkpt><trkpt lat="45.5711059" lon="10.8120146"><ele>192.0</ele><time>2026-04-22T18:02:40.283Z</time></trkpt><trkpt lat="45.5712086" lon="10.8120046"><ele>192.0</ele><time>2026-04-22T18:02:41.283Z</time></trkpt><trkpt lat="45.5713098" lon="10.8119763"><ele>192.0</ele><time>2026-04-22T18:02:42.283Z</time></trkpt><trkpt lat="45.5713904" lon="10.811972"><ele>192.33333333333334</ele><time>2026-04-22T18:02:43.282Z</time></trkpt><trkpt lat="45.5714582" lon="10.8119729"><ele>192.66666666666669</ele><time>2026-04-22T18:02:44.283Z</time></trkpt><trkpt lat="45.5715427" lon="10.8119694"><ele>193.0</ele><time>2026-04-22T18:02:46.283Z</time></trkpt><trkpt lat="45.5716069" lon="10.8119391"><ele>193.33333333333334</ele><time>2026-04-22T18:02:48.283Z</time></trkpt><trkpt lat="45.5716958" lon="10.8118902"><ele>193.66666666666669</ele><time>2026-04-22T18:02:50.282Z</time></trkpt><trkpt lat="45.571798" lon="10.8118188"><ele>194.0</ele><time>2026-04-22T18:02:52.283Z</time></trkpt><trkpt lat="45.5718499" lon="10.8117635"><ele>194.00000000000003</ele><time>2026-04-22T18:02:53.283Z</time></trkpt><trkpt lat="45.5718967" lon="10.8116979"><ele>194.0</ele><time>2026-04-22T18:02:54.283Z</time></trkpt><trkpt lat="45.5719422" lon="10.8116356"><ele>194.0</ele><time>2026-04-22T18:02:55.283Z</time></trkpt><trkpt lat="45.5719706" lon="10.8115507"><ele>194.0</ele><time>2026-04-22T18:02:57.283Z</time></trkpt><trkpt lat="45.5719153" lon="10.8116596"><ele>194.00000000000003</ele><time>2026-04-22T18:04:11.283Z</time></trkpt><trkpt lat="45.571837" lon="10.8117438"><ele>194.0</ele><time>2026-04-22T18:04:13.282Z</time></trkpt><trkpt lat="45.5718382" lon="10.8118779"><ele>192.6</ele><time>2026-04-22T18:04:16.283Z</time></trkpt><trkpt lat="45.5719017" lon="10.8119354"><ele>191.2</ele><time>2026-04-22T18:04:18.283Z</time></trkpt><trkpt lat="45.5719823" lon="10.8119324"><ele>189.79999999999998</ele><time>2026-04-22T18:04:19.282Z</time></trkpt><trkpt lat="45.5720777" lon="10.8119328"><ele>188.39999999999998</ele><time>2026-04-22T18:04:20.283Z</time></trkpt><trkpt lat="45.5721774" lon="10.8119481"><ele>187.0</ele><time>2026-04-22T18:04:21.283Z</time></trkpt><trkpt lat="45.57229" lon="10.8119898"><ele>187.0</ele><time>2026-04-22T18:04:22.283Z</time></trkpt><trkpt lat="45.5724068" lon="10.81205"><ele>187.0</ele><time>2026-04-22T18:04:23.283Z</time></trkpt><trkpt lat="45.572528" lon="10.8121223"><ele>187.0</ele><time>2026-04-22T18:04:24.283Z</time></trkpt><trkpt lat="45.5726395" lon="10.8121935"><ele>187.0</ele><time>2026-04-22T18:04:25.282Z</time></trkpt><trkpt lat="45.5727334" lon="10.8122745"><ele>187.0</ele><time>2026-04-22T18:04:26.283Z</time></trkpt><trkpt lat="45.5728203" lon="10.8123755"><ele>187.0</ele><time>2026-04-22T18:04:27.283Z</time></trkpt><trkpt lat="45.5728879" lon="10.8124852"><ele>187.0</ele><time>2026-04-22T18:04:28.282Z</time></trkpt><trkpt lat="45.5729513" lon="10.8126155"><ele>187.0</ele><time>2026-04-22T18:04:29.283Z</time></trkpt><trkpt lat="45.5730216" lon="10.812776"><ele>186.25</ele><time>2026-04-22T18:04:30.283Z</time></trkpt><trkpt lat="45.573092" lon="10.8129304"><ele>185.5</ele><time>2026-04-22T18:04:31.282Z</time></trkpt><trkpt lat="45.5731688" lon="10.8130689"><ele>184.75</ele><time>2026-04-22T18:04:32.283Z</time></trkpt><trkpt lat="45.5732836" lon="10.8132254"><ele>184.0</ele><time>2026-04-22T18:04:33.282Z</time></trkpt><trkpt lat="45.5734051" lon="10.8133758"><ele>184.5</ele><time>2026-04-22T18:04:34.283Z</time></trkpt><trkpt lat="45.5735168" lon="10.8135198"><ele>185.0</ele><time>2026-04-22T18:04:35.283Z</time></trkpt><trkpt lat="45.5736238" lon="10.8136444"><ele>185.5</ele><time>2026-04-22T18:04:36.283Z</time></trkpt><trkpt lat="45.5737227" lon="10.8137523"><ele>186.0</ele><time>2026-04-22T18:04:37.282Z</time></trkpt><trkpt lat="45.5738317" lon="10.8138378"><ele>186.0</ele><time>2026-04-22T18:04:38.283Z</time></trkpt><trkpt lat="45.5739597" lon="10.8139109"><ele>186.0</ele><time>2026-04-22T18:04:39.282Z</time></trkpt><trkpt lat="45.5740861" lon="10.8139641"><ele>186.0</ele><time>2026-04-22T18:04:40.283Z</time></trkpt><trkpt lat="45.5742073" lon="10.8140228"><ele>186.0</ele><time>2026-04-22T18:04:41.283Z</time></trkpt><trkpt lat="45.5743113" lon="10.8140964"><ele>186.0</ele><time>2026-04-22T18:04:42.283Z</time></trkpt><trkpt lat="45.5744059" lon="10.8142186"><ele>186.0</ele><time>2026-04-22T18:04:43.283Z</time></trkpt><trkpt lat="45.5745043" lon="10.8143639"><ele>186.0</ele><time>2026-04-22T18:04:44.283Z</time></trkpt><trkpt lat="45.5746095" lon="10.814531"><ele>186.0</ele><time>2026-04-22T18:04:45.283Z</time></trkpt><trkpt lat="45.5747191" lon="10.8146989"><ele>185.5</ele><time>2026-04-22T18:04:46.283Z</time></trkpt><trkpt lat="45.5748178" lon="10.8148487"><ele>185.0</ele><time>2026-04-22T18:04:47.283Z</time></trkpt><trkpt lat="45.5749043" lon="10.814963"><ele>184.5</ele><time>2026-04-22T18:04:48.283Z</time></trkpt><trkpt lat="45.5749826" lon="10.8150644"><ele>184.0</ele><time>2026-04-22T18:04:49.283Z</time></trkpt><trkpt lat="45.5750481" lon="10.8151526"><ele>184.0</ele><time>2026-04-22T18:04:50.283Z</time></trkpt><trkpt lat="45.5751071" lon="10.8151979"><ele>184.0</ele><time>2026-04-22T18:04:51.283Z</time></trkpt><trkpt lat="45.57517" lon="10.8152383"><ele>184.0</ele><time>2026-04-22T18:04:52.283Z</time></trkpt><trkpt lat="45.5752608" lon="10.8151691"><ele>184.0</ele><time>2026-04-22T18:04:54.283Z</time></trkpt><trkpt lat="45.5753184" lon="10.8149909"><ele>184.0</ele><time>2026-04-22T18:04:55.283Z</time></trkpt><trkpt lat="45.5753832" lon="10.8148356"><ele>186.0</ele><time>2026-04-22T18:04:56.283Z</time></trkpt><trkpt lat="45.5754529" lon="10.814645"><ele>188.0</ele><time>2026-04-22T18:04:57.282Z</time></trkpt><trkpt lat="45.5755383" lon="10.8144569"><ele>190.0</ele><time>2026-04-22T18:04:58.283Z</time></trkpt><trkpt lat="45.5756339" lon="10.8142304"><ele>190.0</ele><time>2026-04-22T18:04:59.282Z</time></trkpt><trkpt lat="45.5757368" lon="10.8139953"><ele>190.0</ele><time>2026-04-22T18:05:00.283Z</time></trkpt><trkpt lat="45.5758558" lon="10.8137255"><ele>190.0</ele><time>2026-04-22T18:05:01.283Z</time></trkpt><trkpt lat="45.5759949" lon="10.8133877"><ele>189.0</ele><time>2026-04-22T18:05:02.283Z</time></trkpt><trkpt lat="45.5761373" lon="10.8130579"><ele>188.0</ele><time>2026-04-22T18:05:03.283Z</time></trkpt><trkpt lat="45.5762804" lon="10.8127257"><ele>187.0</ele><time>2026-04-22T18:05:04.283Z</time></trkpt><trkpt lat="45.5764202" lon="10.8123871"><ele>186.0</ele><time>2026-04-22T18:05:05.283Z</time></trkpt><trkpt lat="45.5765535" lon="10.812079"><ele>186.0</ele><time>2026-04-22T18:05:06.283Z</time></trkpt><trkpt lat="45.5766651" lon="10.8118085"><ele>186.0</ele><time>2026-04-22T18:05:07.283Z</time></trkpt><trkpt lat="45.5767781" lon="10.8115542"><ele>186.0</ele><time>2026-04-22T18:05:08.283Z</time></trkpt><trkpt lat="45.5768801" lon="10.8113155"><ele>186.0</ele><time>2026-04-22T18:05:09.283Z</time></trkpt><trkpt lat="45.5769775" lon="10.8110956"><ele>186.0</ele><time>2026-04-22T18:05:10.283Z</time></trkpt><trkpt lat="45.5770593" lon="10.8109048"><ele>186.0</ele><time>2026-04-22T18:05:11.283Z</time></trkpt><trkpt lat="45.5771393" lon="10.8107116"><ele>185.33333333333334</ele><time>2026-04-22T18:05:12.283Z</time></trkpt><trkpt lat="45.5772151" lon="10.8105274"><ele>184.66666666666669</ele><time>2026-04-22T18:05:13.283Z</time></trkpt><trkpt lat="45.5772926" lon="10.8103233"><ele>184.0</ele><time>2026-04-22T18:05:14.283Z</time></trkpt><trkpt lat="45.5773756" lon="10.81013"><ele>183.33333333333334</ele><time>2026-04-22T18:05:15.283Z</time></trkpt><trkpt lat="45.5774624" lon="10.8099385"><ele>182.66666666666666</ele><time>2026-04-22T18:05:16.282Z</time></trkpt><trkpt lat="45.5775472" lon="10.8097356"><ele>182.0</ele><time>2026-04-22T18:05:17.283Z</time></trkpt><trkpt lat="45.5776382" lon="10.8095184"><ele>181.0</ele><time>2026-04-22T18:05:18.283Z</time></trkpt><trkpt lat="45.5777386" lon="10.8092926"><ele>180.0</ele><time>2026-04-22T18:05:19.282Z</time></trkpt><trkpt lat="45.5778444" lon="10.8090803"><ele>179.0</ele><time>2026-04-22T18:05:20.283Z</time></trkpt><trkpt lat="45.5779558" lon="10.8088888"><ele>178.0</ele><time>2026-04-22T18:05:21.283Z</time></trkpt><trkpt lat="45.5780729" lon="10.8087056"><ele>177.0</ele><time>2026-04-22T18:05:22.283Z</time></trkpt><trkpt lat="45.5781917" lon="10.8085268"><ele>176.0</ele><time>2026-04-22T18:05:23.283Z</time></trkpt><trkpt lat="45.5783167" lon="10.808336"><ele>176.0</ele><time>2026-04-22T18:05:24.283Z</time></trkpt><trkpt lat="45.5784403" lon="10.8081508"><ele>176.0</ele><time>2026-04-22T18:05:25.283Z</time></trkpt><trkpt lat="45.5785459" lon="10.8079774"><ele>176.0</ele><time>2026-04-22T18:05:26.283Z</time></trkpt><trkpt lat="45.5786429" lon="10.8078174"><ele>177.5</ele><time>2026-04-22T18:05:27.283Z</time></trkpt><trkpt lat="45.5787402" lon="10.8076716"><ele>179.0</ele><time>2026-04-22T18:05:28.283Z</time></trkpt><trkpt lat="45.5788291" lon="10.807541"><ele>180.5</ele><time>2026-04-22T18:05:29.283Z</time></trkpt><trkpt lat="45.5789039" lon="10.8074114"><ele>182.0</ele><time>2026-04-22T18:05:30.283Z</time></trkpt><trkpt lat="45.5789592" lon="10.8073444"><ele>182.33333333333331</ele><time>2026-04-22T18:05:31.283Z</time></trkpt><trkpt lat="45.5790242" lon="10.8072681"><ele>182.66666666666666</ele><time>2026-04-22T18:05:33.283Z</time></trkpt><trkpt lat="45.5791275" lon="10.8072436"><ele>183.0</ele><time>2026-04-22T18:05:35.283Z</time></trkpt><trkpt lat="45.5791918" lon="10.8072757"><ele>183.33333333333334</ele><time>2026-04-22T18:05:36.283Z</time></trkpt><trkpt lat="45.5792656" lon="10.8073248"><ele>183.66666666666669</ele><time>2026-04-22T18:05:37.283Z</time></trkpt><trkpt lat="45.5793487" lon="10.8073817"><ele>184.0</ele><time>2026-04-22T18:05:38.282Z</time></trkpt><trkpt lat="45.5794642" lon="10.8074363"><ele>184.0</ele><time>2026-04-22T18:05:39.283Z</time></trkpt><trkpt lat="45.5795896" lon="10.8075016"><ele>184.0</ele><time>2026-04-22T18:05:40.283Z</time></trkpt><trkpt lat="45.5797265" lon="10.8075721"><ele>184.0</ele><time>2026-04-22T18:05:41.283Z</time></trkpt><trkpt lat="45.5798742" lon="10.8076498"><ele>184.0</ele><time>2026-04-22T18:05:42.283Z</time></trkpt><trkpt lat="45.5800433" lon="10.8077302"><ele>184.0</ele><time>2026-04-22T18:05:43.283Z</time></trkpt><trkpt lat="45.5802242" lon="10.8078023"><ele>184.0</ele><time>2026-04-22T18:05:44.283Z</time></trkpt><trkpt lat="45.5804275" lon="10.8078728"><ele>184.0</ele><time>2026-04-22T18:05:45.283Z</time></trkpt><trkpt lat="45.5806459" lon="10.8079442"><ele>184.33333333333334</ele><time>2026-04-22T18:05:46.282Z</time></trkpt><trkpt lat="45.5808608" lon="10.8080113"><ele>184.66666666666666</ele><time>2026-04-22T18:05:47.283Z</time></trkpt><trkpt lat="45.581061" lon="10.8080629"><ele>185.0</ele><time>2026-04-22T18:05:48.283Z</time></trkpt><trkpt lat="45.5812508" lon="10.808115"><ele>185.0</ele><time>2026-04-22T18:05:49.283Z</time></trkpt><trkpt lat="45.5814334" lon="10.808165"><ele>185.0</ele><time>2026-04-22T18:05:50.283Z</time></trkpt><trkpt lat="45.5816157" lon="10.8082106"><ele>185.0</ele><time>2026-04-22T18:05:51.283Z</time></trkpt><trkpt lat="45.5817903" lon="10.8082601"><ele>185.0</ele><time>2026-04-22T18:05:52.282Z</time></trkpt><trkpt lat="45.5819585" lon="10.8083094"><ele>185.0</ele><time>2026-04-22T18:05:53.283Z</time></trkpt><trkpt lat="45.5821165" lon="10.8083576"><ele>185.0</ele><time>2026-04-22T18:05:54.283Z</time></trkpt><trkpt lat="45.5822486" lon="10.8083975"><ele>185.25</ele><time>2026-04-22T18:05:55.282Z</time></trkpt><trkpt lat="45.5823685" lon="10.8084377"><ele>185.5</ele><time>2026-04-22T18:05:56.283Z</time></trkpt><trkpt lat="45.5824983" lon="10.8084703"><ele>185.75</ele><time>2026-04-22T18:05:57.283Z</time></trkpt><trkpt lat="45.5826312" lon="10.8085231"><ele>186.0</ele><time>2026-04-22T18:05:58.283Z</time></trkpt><trkpt lat="45.582751" lon="10.808589"><ele>185.75</ele><time>2026-04-22T18:05:59.283Z</time></trkpt><trkpt lat="45.5828481" lon="10.8086416"><ele>185.5</ele><time>2026-04-22T18:06:00.283Z</time></trkpt><trkpt lat="45.5829191" lon="10.808695"><ele>185.25</ele><time>2026-04-22T18:06:01.283Z</time></trkpt><trkpt lat="45.5830319" lon="10.8087211"><ele>185.0</ele><time>2026-04-22T18:06:03.282Z</time></trkpt><trkpt lat="45.5831896" lon="10.8086729"><ele>185.0</ele><time>2026-04-22T18:06:05.283Z</time></trkpt><trkpt lat="45.5832892" lon="10.8086356"><ele>185.0</ele><time>2026-04-22T18:06:06.283Z</time></trkpt><trkpt lat="45.5834115" lon="10.8085918"><ele>185.0</ele><time>2026-04-22T18:06:07.282Z</time></trkpt><trkpt lat="45.5835202" lon="10.8085548"><ele>185.0</ele><time>2026-04-22T18:06:08.283Z</time></trkpt><trkpt lat="45.5836306" lon="10.8085062"><ele>186.0</ele><time>2026-04-22T18:06:09.283Z</time></trkpt><trkpt lat="45.5837445" lon="10.8084477"><ele>187.0</ele><time>2026-04-22T18:06:10.283Z</time></trkpt><trkpt lat="45.5838716" lon="10.8083791"><ele>188.0</ele><time>2026-04-22T18:06:11.282Z</time></trkpt><trkpt lat="45.5839861" lon="10.80831"><ele>189.0</ele><time>2026-04-22T18:06:12.283Z</time></trkpt><trkpt lat="45.5840857" lon="10.8082435"><ele>189.0</ele><time>2026-04-22T18:06:13.283Z</time></trkpt><trkpt lat="45.5841709" lon="10.8082008"><ele>189.0</ele><time>2026-04-22T18:06:14.283Z</time></trkpt><trkpt lat="45.5842409" lon="10.808159"><ele>189.0</ele><time>2026-04-22T18:06:15.282Z</time></trkpt><trkpt lat="45.5843056" lon="10.8081634"><ele>189.0</ele><time>2026-04-22T18:06:17.283Z</time></trkpt><trkpt lat="45.5843886" lon="10.8081868"><ele>189.0</ele><time>2026-04-22T18:06:19.283Z</time></trkpt><trkpt lat="45.5844699" lon="10.8081584"><ele>189.0</ele><time>2026-04-22T18:06:20.283Z</time></trkpt><trkpt lat="45.5845442" lon="10.8081027"><ele>188.5</ele><time>2026-04-22T18:06:21.283Z</time></trkpt><trkpt lat="45.5846395" lon="10.8080331"><ele>188.0</ele><time>2026-04-22T18:06:22.282Z</time></trkpt><trkpt lat="45.5847277" lon="10.8079601"><ele>187.5</ele><time>2026-04-22T18:06:23.283Z</time></trkpt><trkpt lat="45.5848288" lon="10.807878"><ele>187.0</ele><time>2026-04-22T18:06:24.283Z</time></trkpt><trkpt lat="45.5849459" lon="10.8077913"><ele>187.0</ele><time>2026-04-22T18:06:25.283Z</time></trkpt><trkpt lat="45.5850764" lon="10.8076889"><ele>187.0</ele><time>2026-04-22T18:06:26.282Z</time></trkpt><trkpt lat="45.5852053" lon="10.8075827"><ele>187.0</ele><time>2026-04-22T18:06:27.283Z</time></trkpt><trkpt lat="45.585351" lon="10.807457"><ele>190.33333333333334</ele><time>2026-04-22T18:06:28.283Z</time></trkpt><trkpt lat="45.5855017" lon="10.807334"><ele>193.66666666666669</ele><time>2026-04-22T18:06:29.283Z</time></trkpt><trkpt lat="45.5856719" lon="10.8071839"><ele>197.0</ele><time>2026-04-22T18:06:30.283Z</time></trkpt><trkpt lat="45.5858426" lon="10.8070318"><ele>197.0</ele><time>2026-04-22T18:06:31.283Z</time></trkpt><trkpt lat="45.5859937" lon="10.8069254"><ele>197.0</ele><time>2026-04-22T18:06:32.283Z</time></trkpt><trkpt lat="45.5861316" lon="10.806821"><ele>197.0</ele><time>2026-04-22T18:06:33.283Z</time></trkpt><trkpt lat="45.5862652" lon="10.8067232"><ele>198.75</ele><time>2026-04-22T18:06:34.283Z</time></trkpt><trkpt lat="45.5863907" lon="10.8066359"><ele>200.5</ele><time>2026-04-22T18:06:35.283Z</time></trkpt><trkpt lat="45.5865328" lon="10.8065984"><ele>202.25</ele><time>2026-04-22T18:06:36.283Z</time></trkpt><trkpt lat="45.5866299" lon="10.806618"><ele>204.0</ele><time>2026-04-22T18:06:37.283Z</time></trkpt><trkpt lat="45.5867129" lon="10.8065918"><ele>204.0</ele><time>2026-04-22T18:06:38.283Z</time></trkpt><trkpt lat="45.5868069" lon="10.8065783"><ele>204.0</ele><time>2026-04-22T18:06:39.283Z</time></trkpt><trkpt lat="45.5869182" lon="10.8065739"><ele>204.0</ele><time>2026-04-22T18:06:40.283Z</time></trkpt><trkpt lat="45.5870453" lon="10.8065466"><ele>204.0</ele><time>2026-04-22T18:06:41.283Z</time></trkpt><trkpt lat="45.5871831" lon="10.8065209"><ele>204.33333333333331</ele><time>2026-04-22T18:06:42.283Z</time></trkpt><trkpt lat="45.5873469" lon="10.8064988"><ele>204.66666666666666</ele><time>2026-04-22T18:06:43.283Z</time></trkpt><trkpt lat="45.5875229" lon="10.806466"><ele>205.0</ele><time>2026-04-22T18:06:44.283Z</time></trkpt><trkpt lat="45.5876889" lon="10.8064417"><ele>205.0</ele><time>2026-04-22T18:06:45.283Z</time></trkpt><trkpt lat="45.5878415" lon="10.8064161"><ele>205.0</ele><time>2026-04-22T18:06:46.283Z</time></trkpt><trkpt lat="45.5879874" lon="10.8063881"><ele>205.0</ele><time>2026-04-22T18:06:47.283Z</time></trkpt><trkpt lat="45.5881368" lon="10.8063589"><ele>205.66666666666666</ele><time>2026-04-22T18:06:48.283Z</time></trkpt><trkpt lat="45.5882863" lon="10.8063139"><ele>206.33333333333331</ele><time>2026-04-22T18:06:49.283Z</time></trkpt><trkpt lat="45.5884389" lon="10.8062607"><ele>207.0</ele><time>2026-04-22T18:06:50.283Z</time></trkpt><trkpt lat="45.5885785" lon="10.8062085"><ele>207.75</ele><time>2026-04-22T18:06:51.283Z</time></trkpt><trkpt lat="45.5887052" lon="10.8061472"><ele>208.5</ele><time>2026-04-22T18:06:52.283Z</time></trkpt><trkpt lat="45.5888292" lon="10.8060675"><ele>209.25</ele><time>2026-04-22T18:06:53.283Z</time></trkpt><trkpt lat="45.5889544" lon="10.8059882"><ele>210.0</ele><time>2026-04-22T18:06:54.283Z</time></trkpt><trkpt lat="45.58909" lon="10.8059234"><ele>210.0</ele><time>2026-04-22T18:06:55.283Z</time></trkpt><trkpt lat="45.5892372" lon="10.8058706"><ele>210.0</ele><time>2026-04-22T18:06:56.282Z</time></trkpt><trkpt lat="45.5894112" lon="10.8058453"><ele>210.0</ele><time>2026-04-22T18:06:57.283Z</time></trkpt><trkpt lat="45.5895818" lon="10.8058178"><ele>211.0</ele><time>2026-04-22T18:06:58.283Z</time></trkpt><trkpt lat="45.5897306" lon="10.8058033"><ele>212.0</ele><time>2026-04-22T18:06:59.283Z</time></trkpt><trkpt lat="45.589857" lon="10.8057952"><ele>213.0</ele><time>2026-04-22T18:07:00.283Z</time></trkpt><trkpt lat="45.5899706" lon="10.8057699"><ele>214.0</ele><time>2026-04-22T18:07:01.283Z</time></trkpt><trkpt lat="45.5900835" lon="10.8057274"><ele>214.0</ele><time>2026-04-22T18:07:02.283Z</time></trkpt><trkpt lat="45.5902013" lon="10.8056577"><ele>214.0</ele><time>2026-04-22T18:07:03.283Z</time></trkpt><trkpt lat="45.5903288" lon="10.805582"><ele>214.0</ele><time>2026-04-22T18:07:04.283Z</time></trkpt><trkpt lat="45.5904577" lon="10.8055073"><ele>214.0</ele><time>2026-04-22T18:07:05.283Z</time></trkpt><trkpt lat="45.5905887" lon="10.8054228"><ele>215.5</ele><time>2026-04-22T18:07:06.283Z</time></trkpt><trkpt lat="45.5907242" lon="10.8053454"><ele>217.0</ele><time>2026-04-22T18:07:07.283Z</time></trkpt><trkpt lat="45.5908569" lon="10.8052615"><ele>218.5</ele><time>2026-04-22T18:07:08.283Z</time></trkpt><trkpt lat="45.5909869" lon="10.8051621"><ele>220.0</ele><time>2026-04-22T18:07:09.283Z</time></trkpt><trkpt lat="45.5911251" lon="10.8050446"><ele>221.5</ele><time>2026-04-22T18:07:10.283Z</time></trkpt><trkpt lat="45.5912479" lon="10.8049368"><ele>223.0</ele><time>2026-04-22T18:07:11.283Z</time></trkpt><trkpt lat="45.5913535" lon="10.8048547"><ele>224.5</ele><time>2026-04-22T18:07:12.283Z</time></trkpt><trkpt lat="45.5914529" lon="10.8048081"><ele>226.0</ele><time>2026-04-22T18:07:13.283Z</time></trkpt><trkpt lat="45.591568" lon="10.8048022"><ele>226.0</ele><time>2026-04-22T18:07:14.283Z</time></trkpt><trkpt lat="45.5916872" lon="10.8048"><ele>226.0</ele><time>2026-04-22T18:07:15.283Z</time></trkpt><trkpt lat="45.5917977" lon="10.8047925"><ele>226.0</ele><time>2026-04-22T18:07:16.283Z</time></trkpt><trkpt lat="45.5919134" lon="10.8047724"><ele>226.0</ele><time>2026-04-22T18:07:17.283Z</time></trkpt><trkpt lat="45.5920263" lon="10.8047366"><ele>228.5</ele><time>2026-04-22T18:07:18.283Z</time></trkpt><trkpt lat="45.5921227" lon="10.8046793"><ele>231.0</ele><time>2026-04-22T18:07:19.283Z</time></trkpt><trkpt lat="45.5922263" lon="10.8046224"><ele>233.5</ele><time>2026-04-22T18:07:20.283Z</time></trkpt><trkpt lat="45.5923453" lon="10.8045864"><ele>236.0</ele><time>2026-04-22T18:07:21.283Z</time></trkpt><trkpt lat="45.5924696" lon="10.8045758"><ele>236.0</ele><time>2026-04-22T18:07:22.283Z</time></trkpt><trkpt lat="45.5925907" lon="10.8045468"><ele>236.00000000000003</ele><time>2026-04-22T18:07:23.283Z</time></trkpt><trkpt lat="45.5926957" lon="10.8045142"><ele>236.00000000000003</ele><time>2026-04-22T18:07:24.283Z</time></trkpt><trkpt lat="45.5927799" lon="10.8044811"><ele>236.0</ele><time>2026-04-22T18:07:25.283Z</time></trkpt><trkpt lat="45.5928569" lon="10.8044372"><ele>236.0</ele><time>2026-04-22T18:07:26.282Z</time></trkpt><trkpt lat="45.5929151" lon="10.8043609"><ele>239.75</ele><time>2026-04-22T18:07:27.283Z</time></trkpt><trkpt lat="45.5929729" lon="10.8042423"><ele>243.5</ele><time>2026-04-22T18:07:28.283Z</time></trkpt><trkpt lat="45.5930598" lon="10.8040975"><ele>247.25</ele><time>2026-04-22T18:07:29.283Z</time></trkpt><trkpt lat="45.5931401" lon="10.8039627"><ele>251.0</ele><time>2026-04-22T18:07:30.283Z</time></trkpt><trkpt lat="45.5932219" lon="10.8038244"><ele>251.0</ele><time>2026-04-22T18:07:31.283Z</time></trkpt><trkpt lat="45.593308" lon="10.8036969"><ele>251.0</ele><time>2026-04-22T18:07:32.282Z</time></trkpt><trkpt lat="45.5933886" lon="10.8035539"><ele>251.0</ele><time>2026-04-22T18:07:33.283Z</time></trkpt><trkpt lat="45.5934623" lon="10.8034008"><ele>251.0</ele><time>2026-04-22T18:07:34.283Z</time></trkpt><trkpt lat="45.5935297" lon="10.8032712"><ele>251.0</ele><time>2026-04-22T18:07:35.283Z</time></trkpt><trkpt lat="45.5935891" lon="10.8031387"><ele>251.00000000000003</ele><time>2026-04-22T18:07:36.283Z</time></trkpt><trkpt lat="45.5936368" lon="10.8030277"><ele>251.00000000000003</ele><time>2026-04-22T18:07:37.283Z</time></trkpt><trkpt lat="45.5936903" lon="10.8029293"><ele>251.0</ele><time>2026-04-22T18:07:38.283Z</time></trkpt><trkpt lat="45.5937452" lon="10.802849"><ele>251.0</ele><time>2026-04-22T18:07:39.283Z</time></trkpt><trkpt lat="45.5938152" lon="10.8027857"><ele>253.16666666666669</ele><time>2026-04-22T18:07:40.283Z</time></trkpt><trkpt lat="45.5939123" lon="10.8026897"><ele>255.33333333333334</ele><time>2026-04-22T18:07:41.283Z</time></trkpt><trkpt lat="45.5939649" lon="10.8026168"><ele>257.5</ele><time>2026-04-22T18:07:42.282Z</time></trkpt><trkpt lat="45.5940225" lon="10.8025118"><ele>259.6666666666667</ele><time>2026-04-22T18:07:43.283Z</time></trkpt><trkpt lat="45.5940851" lon="10.8024161"><ele>261.8333333333333</ele><time>2026-04-22T18:07:44.283Z</time></trkpt><trkpt lat="45.594125" lon="10.802338"><ele>264.0</ele><time>2026-04-22T18:07:45.283Z</time></trkpt><trkpt lat="45.594192" lon="10.8023273"><ele>264.0</ele><time>2026-04-22T18:07:50.283Z</time></trkpt><trkpt lat="45.5942141" lon="10.8024409"><ele>264.0</ele><time>2026-04-22T18:07:52.283Z</time></trkpt><trkpt lat="45.5942357" lon="10.8025415"><ele>264.0</ele><time>2026-04-22T18:07:53.283Z</time></trkpt><trkpt lat="45.5942674" lon="10.8027055"><ele>264.0</ele><time>2026-04-22T18:07:55.283Z</time></trkpt><trkpt lat="45.5943075" lon="10.8028579"><ele>264.0</ele><time>2026-04-22T18:07:56.283Z</time></trkpt><trkpt lat="45.5943684" lon="10.8029902"><ele>264.0</ele><time>2026-04-22T18:07:57.283Z</time></trkpt><trkpt lat="45.594418" lon="10.8031138"><ele>264.0</ele><time>2026-04-22T18:07:58.283Z</time></trkpt><trkpt lat="45.5944837" lon="10.8032066"><ele>264.0</ele><time>2026-04-22T18:07:59.283Z</time></trkpt><trkpt lat="45.594548" lon="10.8032859"><ele>264.0</ele><time>2026-04-22T18:08:00.283Z</time></trkpt><trkpt lat="45.5946596" lon="10.8033961"><ele>264.0</ele><time>2026-04-22T18:08:01.283Z</time></trkpt><trkpt lat="45.5947627" lon="10.8034884"><ele>265.8</ele><time>2026-04-22T18:08:02.283Z</time></trkpt><trkpt lat="45.5948666" lon="10.8035701"><ele>267.59999999999997</ele><time>2026-04-22T18:08:03.283Z</time></trkpt><trkpt lat="45.594967" lon="10.8036428"><ele>269.4</ele><time>2026-04-22T18:08:04.283Z</time></trkpt><trkpt lat="45.5950495" lon="10.8036871"><ele>271.2</ele><time>2026-04-22T18:08:05.283Z</time></trkpt><trkpt lat="45.5951329" lon="10.803761"><ele>273.0</ele><time>2026-04-22T18:08:06.283Z</time></trkpt><trkpt lat="45.5952421" lon="10.8038506"><ele>273.0</ele><time>2026-04-22T18:08:08.283Z</time></trkpt><trkpt lat="45.5953055" lon="10.8039191"><ele>273.0</ele><time>2026-04-22T18:08:09.283Z</time></trkpt><trkpt lat="45.5953812" lon="10.8040048"><ele>273.0</ele><time>2026-04-22T18:08:10.283Z</time></trkpt><trkpt lat="45.5954492" lon="10.8040907"><ele>273.0</ele><time>2026-04-22T18:08:11.283Z</time></trkpt><trkpt lat="45.5955" lon="10.8041471"><ele>273.0</ele><time>2026-04-22T18:08:12.283Z</time></trkpt><trkpt lat="45.5956004" lon="10.8042382"><ele>276.0</ele><time>2026-04-22T18:08:14.283Z</time></trkpt><trkpt lat="45.5956671" lon="10.8043381"><ele>279.0</ele><time>2026-04-22T18:09:34.283Z</time></trkpt><trkpt lat="45.5957601" lon="10.804444"><ele>282.0</ele><time>2026-04-22T18:09:37.283Z</time></trkpt><trkpt lat="45.5958171" lon="10.8045953"><ele>285.0</ele><time>2026-04-22T18:09:39.283Z</time></trkpt><trkpt lat="45.5958413" lon="10.8046815"><ele>288.0</ele><time>2026-04-22T18:09:40.282Z</time></trkpt><trkpt lat="45.5958671" lon="10.8047704"><ele>288.0</ele><time>2026-04-22T18:09:41.283Z</time></trkpt><trkpt lat="45.5958988" lon="10.8048574"><ele>288.0</ele><time>2026-04-22T18:09:42.283Z</time></trkpt><trkpt lat="45.5959354" lon="10.8049524"><ele>288.0</ele><time>2026-04-22T18:09:43.283Z</time></trkpt><trkpt lat="45.5959782" lon="10.8050384"><ele>288.0</ele><time>2026-04-22T18:09:44.283Z</time></trkpt><trkpt lat="45.5960348" lon="10.8051136"><ele>288.0</ele><time>2026-04-22T18:09:45.283Z</time></trkpt><trkpt lat="45.5960925" lon="10.805172"><ele>288.0</ele><time>2026-04-22T18:09:46.283Z</time></trkpt><trkpt lat="45.5961741" lon="10.8052288"><ele>289.1666666666667</ele><time>2026-04-22T18:09:47.283Z</time></trkpt><trkpt lat="45.5962405" lon="10.8052428"><ele>290.3333333333333</ele><time>2026-04-22T18:09:48.283Z</time></trkpt><trkpt lat="45.5963157" lon="10.8052419"><ele>291.5</ele><time>2026-04-22T18:09:49.283Z</time></trkpt><trkpt lat="45.5964514" lon="10.8052243"><ele>292.66666666666663</ele><time>2026-04-22T18:09:51.283Z</time></trkpt><trkpt lat="45.5965328" lon="10.8051892"><ele>293.8333333333333</ele><time>2026-04-22T18:09:52.283Z</time></trkpt><trkpt lat="45.5966076" lon="10.805131"><ele>295.0</ele><time>2026-04-22T18:09:53.283Z</time></trkpt><trkpt lat="45.5966739" lon="10.8050473"><ele>295.0</ele><time>2026-04-22T18:09:54.283Z</time></trkpt><trkpt lat="45.5967396" lon="10.804973"><ele>295.0</ele><time>2026-04-22T18:09:55.283Z</time></trkpt><trkpt lat="45.5968107" lon="10.8049532"><ele>295.0</ele><time>2026-04-22T18:09:56.283Z</time></trkpt><trkpt lat="45.5968936" lon="10.8049379"><ele>295.0</ele><time>2026-04-22T18:09:57.283Z</time></trkpt><trkpt lat="45.5969685" lon="10.8049212"><ele>295.0</ele><time>2026-04-22T18:09:58.282Z</time></trkpt><trkpt lat="45.5970524" lon="10.8048736"><ele>295.0</ele><time>2026-04-22T18:09:59.283Z</time></trkpt><trkpt lat="45.5971236" lon="10.8048215"><ele>293.4</ele><time>2026-04-22T18:10:00.283Z</time></trkpt><trkpt lat="45.5971881" lon="10.8047646"><ele>291.8</ele><time>2026-04-22T18:10:01.283Z</time></trkpt><trkpt lat="45.5972489" lon="10.8046526"><ele>290.2</ele><time>2026-04-22T18:10:02.283Z</time></trkpt><trkpt lat="45.5973093" lon="10.8045047"><ele>288.6</ele><time>2026-04-22T18:10:03.283Z</time></trkpt><trkpt lat="45.5973767" lon="10.804354"><ele>287.0</ele><time>2026-04-22T18:10:04.283Z</time></trkpt><trkpt lat="45.5974384" lon="10.8042023"><ele>287.0</ele><time>2026-04-22T18:10:05.282Z</time></trkpt><trkpt lat="45.5974975" lon="10.8040472"><ele>287.0</ele><time>2026-04-22T18:10:06.283Z</time></trkpt><trkpt lat="45.5975568" lon="10.8039421"><ele>287.0</ele><time>2026-04-22T18:10:07.283Z</time></trkpt><trkpt lat="45.597616" lon="10.8038387"><ele>287.0</ele><time>2026-04-22T18:10:08.282Z</time></trkpt><trkpt lat="45.5976822" lon="10.8037385"><ele>287.0</ele><time>2026-04-22T18:10:09.283Z</time></trkpt><trkpt lat="45.5977501" lon="10.8036325"><ele>287.0</ele><time>2026-04-22T18:10:10.283Z</time></trkpt><trkpt lat="45.5978293" lon="10.8035585"><ele>287.0</ele><time>2026-04-22T18:10:11.283Z</time></trkpt><trkpt lat="45.5979181" lon="10.8035145"><ele>287.0</ele><time>2026-04-22T18:10:12.283Z</time></trkpt><trkpt lat="45.5980357" lon="10.8034983"><ele>287.0</ele><time>2026-04-22T18:10:13.283Z</time></trkpt><trkpt lat="45.5981541" lon="10.8034944"><ele>287.0</ele><time>2026-04-22T18:10:14.283Z</time></trkpt><trkpt lat="45.5982707" lon="10.8034858"><ele>285.25</ele><time>2026-04-22T18:10:15.282Z</time></trkpt><trkpt lat="45.5983901" lon="10.8035174"><ele>283.5</ele><time>2026-04-22T18:10:16.283Z</time></trkpt><trkpt lat="45.5985232" lon="10.8035502"><ele>281.75</ele><time>2026-04-22T18:10:17.283Z</time></trkpt><trkpt lat="45.5986352" lon="10.8035549"><ele>280.0</ele><time>2026-04-22T18:10:18.283Z</time></trkpt><trkpt lat="45.5987456" lon="10.8035432"><ele>278.66666666666663</ele><time>2026-04-22T18:10:19.283Z</time></trkpt><trkpt lat="45.5988473" lon="10.8035243"><ele>277.3333333333333</ele><time>2026-04-22T18:10:20.283Z</time></trkpt><trkpt lat="45.59894" lon="10.8035186"><ele>276.0</ele><time>2026-04-22T18:10:21.283Z</time></trkpt><trkpt lat="45.5990234" lon="10.8035083"><ele>274.6666666666667</ele><time>2026-04-22T18:10:22.283Z</time></trkpt><trkpt lat="45.5991003" lon="10.8034869"><ele>273.33333333333337</ele><time>2026-04-22T18:10:23.283Z</time></trkpt><trkpt lat="45.5991603" lon="10.8034116"><ele>272.0</ele><time>2026-04-22T18:10:24.282Z</time></trkpt><trkpt lat="45.5992089" lon="10.8033362"><ele>271.5</ele><time>2026-04-22T18:10:25.283Z</time></trkpt><trkpt lat="45.5992665" lon="10.8032666"><ele>271.0</ele><time>2026-04-22T18:10:26.282Z</time></trkpt><trkpt lat="45.5993406" lon="10.8032107"><ele>270.5</ele><time>2026-04-22T18:10:27.283Z</time></trkpt><trkpt lat="45.5994226" lon="10.8031742"><ele>270.0</ele><time>2026-04-22T18:10:28.283Z</time></trkpt><trkpt lat="45.5995069" lon="10.8031361"><ele>269.5</ele><time>2026-04-22T18:10:29.282Z</time></trkpt><trkpt lat="45.5995811" lon="10.8031103"><ele>269.0</ele><time>2026-04-22T18:10:30.283Z</time></trkpt><trkpt lat="45.5996661" lon="10.8030864"><ele>268.0</ele><time>2026-04-22T18:10:31.283Z</time></trkpt><trkpt lat="45.5997769" lon="10.803058"><ele>267.0</ele><time>2026-04-22T18:10:32.283Z</time></trkpt><trkpt lat="45.5998816" lon="10.8030375"><ele>266.0</ele><time>2026-04-22T18:10:33.283Z</time></trkpt><trkpt lat="45.5999737" lon="10.8030382"><ele>265.0</ele><time>2026-04-22T18:10:34.283Z</time></trkpt><trkpt lat="45.6000628" lon="10.8030569"><ele>264.0</ele><time>2026-04-22T18:10:35.283Z</time></trkpt><trkpt lat="45.6001532" lon="10.8030959"><ele>264.0</ele><time>2026-04-22T18:10:36.283Z</time></trkpt><trkpt lat="45.6002817" lon="10.8031411"><ele>264.0</ele><time>2026-04-22T18:10:37.283Z</time></trkpt><trkpt lat="45.6003844" lon="10.8031548"><ele>264.0</ele><time>2026-04-22T18:10:38.283Z</time></trkpt><trkpt lat="45.6004833" lon="10.8031671"><ele>264.0</ele><time>2026-04-22T18:10:39.283Z</time></trkpt><trkpt lat="45.6005686" lon="10.8031674"><ele>264.0</ele><time>2026-04-22T18:10:40.282Z</time></trkpt><trkpt lat="45.6006389" lon="10.8031656"><ele>263.0</ele><time>2026-04-22T18:10:41.283Z</time></trkpt><trkpt lat="45.6007123" lon="10.8031615"><ele>262.0</ele><time>2026-04-22T18:10:42.283Z</time></trkpt><trkpt lat="45.6008145" lon="10.8031766"><ele>261.0</ele><time>2026-04-22T18:10:44.283Z</time></trkpt><trkpt lat="45.6008844" lon="10.803298"><ele>260.0</ele><time>2026-04-22T18:10:46.282Z</time></trkpt><trkpt lat="45.6009018" lon="10.803417"><ele>259.0</ele><time>2026-04-22T18:10:47.282Z</time></trkpt><trkpt lat="45.6009155" lon="10.8035554"><ele>259.0</ele><time>2026-04-22T18:10:48.283Z</time></trkpt><trkpt lat="45.6009266" lon="10.8037271"><ele>259.0</ele><time>2026-04-22T18:10:49.283Z</time></trkpt><trkpt lat="45.6009262" lon="10.8039097"><ele>259.0</ele><time>2026-04-22T18:10:50.282Z</time></trkpt><trkpt lat="45.6009198" lon="10.8041003"><ele>259.0</ele><time>2026-04-22T18:10:51.283Z</time></trkpt><trkpt lat="45.6009082" lon="10.8043158"><ele>259.3333333333333</ele><time>2026-04-22T18:10:52.283Z</time></trkpt><trkpt lat="45.6009003" lon="10.8045256"><ele>259.6666666666667</ele><time>2026-04-22T18:10:53.282Z</time></trkpt><trkpt lat="45.6008898" lon="10.8047493"><ele>260.0</ele><time>2026-04-22T18:10:54.283Z</time></trkpt><trkpt lat="45.6008845" lon="10.8049665"><ele>260.33333333333337</ele><time>2026-04-22T18:10:55.283Z</time></trkpt><trkpt lat="45.6008704" lon="10.8051919"><ele>260.6666666666667</ele><time>2026-04-22T18:10:56.283Z</time></trkpt><trkpt lat="45.6008604" lon="10.8054143"><ele>261.0</ele><time>2026-04-22T18:10:57.283Z</time></trkpt><trkpt lat="45.6008522" lon="10.8056416"><ele>261.0</ele><time>2026-04-22T18:10:58.283Z</time></trkpt><trkpt lat="45.6008454" lon="10.8058843"><ele>261.0</ele><time>2026-04-22T18:10:59.283Z</time></trkpt><trkpt lat="45.6008375" lon="10.806115"><ele>261.0</ele><time>2026-04-22T18:11:00.283Z</time></trkpt><trkpt lat="45.6008251" lon="10.8063448"><ele>261.6666666666667</ele><time>2026-04-22T18:11:01.283Z</time></trkpt><trkpt lat="45.6008136" lon="10.8065637"><ele>262.33333333333337</ele><time>2026-04-22T18:11:02.283Z</time></trkpt><trkpt lat="45.6008011" lon="10.8067923"><ele>263.0</ele><time>2026-04-22T18:11:03.282Z</time></trkpt><trkpt lat="45.6007914" lon="10.8070045"><ele>263.25</ele><time>2026-04-22T18:11:04.282Z</time></trkpt><trkpt lat="45.6007812" lon="10.8071994"><ele>263.5</ele><time>2026-04-22T18:11:05.282Z</time></trkpt><trkpt lat="45.600772" lon="10.8073891"><ele>263.75</ele><time>2026-04-22T18:11:06.283Z</time></trkpt><trkpt lat="45.6007641" lon="10.8075785"><ele>264.0</ele><time>2026-04-22T18:11:07.283Z</time></trkpt><trkpt lat="45.6007498" lon="10.8077294"><ele>264.0</ele><time>2026-04-22T18:11:08.283Z</time></trkpt><trkpt lat="45.6007324" lon="10.807858"><ele>264.0</ele><time>2026-04-22T18:11:09.283Z</time></trkpt><trkpt lat="45.6007163" lon="10.807959"><ele>264.0</ele><time>2026-04-22T18:11:10.283Z</time></trkpt><trkpt lat="45.6007228" lon="10.808082"><ele>264.0</ele><time>2026-04-22T18:11:12.282Z</time></trkpt><trkpt lat="45.6008331" lon="10.8081144"><ele>264.0</ele><time>2026-04-22T18:11:15.283Z</time></trkpt><trkpt lat="45.6009332" lon="10.8081576"><ele>264.0</ele><time>2026-04-22T18:11:17.282Z</time></trkpt><trkpt lat="45.6010285" lon="10.8083465"><ele>264.0</ele><time>2026-04-22T18:11:19.283Z</time></trkpt><trkpt lat="45.6010796" lon="10.8084463"><ele>264.0</ele><time>2026-04-22T18:11:20.283Z</time></trkpt><trkpt lat="45.601155" lon="10.8085275"><ele>264.0</ele><time>2026-04-22T18:11:21.283Z</time></trkpt><trkpt lat="45.6012473" lon="10.8085911"><ele>264.0</ele><time>2026-04-22T18:11:22.283Z</time></trkpt><trkpt lat="45.6013364" lon="10.8086447"><ele>263.5</ele><time>2026-04-22T18:11:23.282Z</time></trkpt><trkpt lat="45.6014412" lon="10.808704"><ele>263.0</ele><time>2026-04-22T18:11:24.283Z</time></trkpt><trkpt lat="45.6015518" lon="10.8087726"><ele>262.5</ele><time>2026-04-22T18:11:25.283Z</time></trkpt><trkpt lat="45.601699" lon="10.8088571"><ele>262.0</ele><time>2026-04-22T18:11:26.282Z</time></trkpt><trkpt lat="45.6018422" lon="10.8089505"><ele>262.0</ele><time>2026-04-22T18:11:27.283Z</time></trkpt><trkpt lat="45.6019908" lon="10.8090503"><ele>262.0</ele><time>2026-04-22T18:11:28.283Z</time></trkpt><trkpt lat="45.6021504" lon="10.8091534"><ele>262.0</ele><time>2026-04-22T18:11:29.283Z</time></trkpt><trkpt lat="45.6023242" lon="10.8092655"><ele>262.3333333333333</ele><time>2026-04-22T18:11:30.283Z</time></trkpt><trkpt lat="45.6025036" lon="10.8093763"><ele>262.6666666666667</ele><time>2026-04-22T18:11:31.283Z</time></trkpt><trkpt lat="45.6026673" lon="10.8094818"><ele>263.0</ele><time>2026-04-22T18:11:32.283Z</time></trkpt><trkpt lat="45.6028339" lon="10.8095881"><ele>263.0</ele><time>2026-04-22T18:11:33.283Z</time></trkpt><trkpt lat="45.6029798" lon="10.8096804"><ele>263.0</ele><time>2026-04-22T18:11:34.283Z</time></trkpt><trkpt lat="45.6031245" lon="10.8097706"><ele>263.0</ele><time>2026-04-22T18:11:35.283Z</time></trkpt><trkpt lat="45.6032745" lon="10.809866"><ele>263.0</ele><time>2026-04-22T18:11:36.282Z</time></trkpt><trkpt lat="45.6034325" lon="10.8099645"><ele>263.0</ele><time>2026-04-22T18:11:37.283Z</time></trkpt><trkpt lat="45.6035958" lon="10.8100702"><ele>263.0</ele><time>2026-04-22T18:11:38.283Z</time></trkpt><trkpt lat="45.6037454" lon="10.8101741"><ele>264.0</ele><time>2026-04-22T18:11:39.283Z</time></trkpt><trkpt lat="45.6038772" lon="10.8102644"><ele>265.0</ele><time>2026-04-22T18:11:40.283Z</time></trkpt><trkpt lat="45.6039944" lon="10.8103442"><ele>266.0</ele><time>2026-04-22T18:11:41.282Z</time></trkpt><trkpt lat="45.6041141" lon="10.8104126"><ele>267.0</ele><time>2026-04-22T18:11:42.283Z</time></trkpt><trkpt lat="45.6042528" lon="10.8104721"><ele>267.0</ele><time>2026-04-22T18:11:43.283Z</time></trkpt><trkpt lat="45.6043782" lon="10.8105248"><ele>267.0</ele><time>2026-04-22T18:11:44.283Z</time></trkpt><trkpt lat="45.6044938" lon="10.8105709"><ele>267.0</ele><time>2026-04-22T18:11:45.283Z</time></trkpt><trkpt lat="45.6045872" lon="10.8106325"><ele>267.0</ele><time>2026-04-22T18:11:46.283Z</time></trkpt><trkpt lat="45.6046686" lon="10.8107002"><ele>267.0</ele><time>2026-04-22T18:11:47.283Z</time></trkpt><trkpt lat="45.6047325" lon="10.8107918"><ele>267.25</ele><time>2026-04-22T18:11:48.283Z</time></trkpt><trkpt lat="45.604785" lon="10.8109294"><ele>267.5</ele><time>2026-04-22T18:11:49.283Z</time></trkpt><trkpt lat="45.6048432" lon="10.8111125"><ele>267.75</ele><time>2026-04-22T18:11:50.283Z</time></trkpt><trkpt lat="45.6049032" lon="10.8113335"><ele>268.0</ele><time>2026-04-22T18:11:51.283Z</time></trkpt><trkpt lat="45.6049568" lon="10.8115257"><ele>268.0</ele><time>2026-04-22T18:11:52.283Z</time></trkpt><trkpt lat="45.6050126" lon="10.8116947"><ele>268.0</ele><time>2026-04-22T18:11:53.283Z</time></trkpt><trkpt lat="45.6050621" lon="10.811862"><ele>268.0</ele><time>2026-04-22T18:11:54.282Z</time></trkpt><trkpt lat="45.6051176" lon="10.8120295"><ele>268.0</ele><time>2026-04-22T18:11:55.283Z</time></trkpt><trkpt lat="45.6051676" lon="10.812169"><ele>268.0</ele><time>2026-04-22T18:11:56.283Z</time></trkpt><trkpt lat="45.6052113" lon="10.8122938"><ele>268.0</ele><time>2026-04-22T18:11:57.283Z</time></trkpt><trkpt lat="45.6052507" lon="10.8124019"><ele>268.0</ele><time>2026-04-22T18:11:58.283Z</time></trkpt><trkpt lat="45.605264" lon="10.8125066"><ele>268.0</ele><time>2026-04-22T18:11:59.283Z</time></trkpt><trkpt lat="45.6052609" lon="10.8126123"><ele>268.0</ele><time>2026-04-22T18:12:00.283Z</time></trkpt><trkpt lat="45.6052354" lon="10.8127462"><ele>268.0</ele><time>2026-04-22T18:12:01.283Z</time></trkpt><trkpt lat="45.6051922" lon="10.8129044"><ele>268.0</ele><time>2026-04-22T18:12:02.283Z</time></trkpt><trkpt lat="45.6051386" lon="10.8130924"><ele>268.0</ele><time>2026-04-22T18:12:03.282Z</time></trkpt><trkpt lat="45.6050842" lon="10.8132756"><ele>268.0</ele><time>2026-04-22T18:12:04.283Z</time></trkpt><trkpt lat="45.6050388" lon="10.8134469"><ele>268.0</ele><time>2026-04-22T18:12:05.283Z</time></trkpt><trkpt lat="45.6049951" lon="10.8136348"><ele>268.0</ele><time>2026-04-22T18:12:06.283Z</time></trkpt><trkpt lat="45.604933" lon="10.8138558"><ele>268.0</ele><time>2026-04-22T18:12:07.283Z</time></trkpt><trkpt lat="45.6048818" lon="10.8140518"><ele>268.0</ele><time>2026-04-22T18:12:08.283Z</time></trkpt><trkpt lat="45.6048313" lon="10.8142291"><ele>268.0</ele><time>2026-04-22T18:12:09.283Z</time></trkpt><trkpt lat="45.6047878" lon="10.8144026"><ele>268.25</ele><time>2026-04-22T18:12:10.283Z</time></trkpt><trkpt lat="45.6047457" lon="10.8145784"><ele>268.5</ele><time>2026-04-22T18:12:11.283Z</time></trkpt><trkpt lat="45.6047052" lon="10.8147692"><ele>268.75</ele><time>2026-04-22T18:12:12.283Z</time></trkpt><trkpt lat="45.6046635" lon="10.8149435"><ele>269.0</ele><time>2026-04-22T18:12:13.283Z</time></trkpt><trkpt lat="45.6046296" lon="10.8151133"><ele>269.1666666666667</ele><time>2026-04-22T18:12:14.283Z</time></trkpt><trkpt lat="45.6046041" lon="10.81526"><ele>269.33333333333337</ele><time>2026-04-22T18:12:15.283Z</time></trkpt><trkpt lat="45.6045912" lon="10.8153917"><ele>269.5</ele><time>2026-04-22T18:12:16.283Z</time></trkpt><trkpt lat="45.6045868" lon="10.8155208"><ele>269.6666666666667</ele><time>2026-04-22T18:12:17.283Z</time></trkpt><trkpt lat="45.6045786" lon="10.8156198"><ele>269.8333333333333</ele><time>2026-04-22T18:12:18.283Z</time></trkpt><trkpt lat="45.6045726" lon="10.8157124"><ele>270.0</ele><time>2026-04-22T18:12:19.283Z</time></trkpt><trkpt lat="45.6045799" lon="10.8158399"><ele>270.0</ele><time>2026-04-22T18:12:21.283Z</time></trkpt><trkpt lat="45.6046275" lon="10.8159476"><ele>270.0</ele><time>2026-04-22T18:12:25.283Z</time></trkpt><trkpt lat="45.604696" lon="10.8160875"><ele>270.0</ele><time>2026-04-22T18:12:27.283Z</time></trkpt><trkpt lat="45.6047203" lon="10.816194"><ele>270.0</ele><time>2026-04-22T18:12:28.283Z</time></trkpt><trkpt lat="45.6047315" lon="10.8163388"><ele>270.0</ele><time>2026-04-22T18:12:29.282Z</time></trkpt><trkpt lat="45.6047344" lon="10.816505"><ele>269.8</ele><time>2026-04-22T18:12:30.283Z</time></trkpt><trkpt lat="45.6047391" lon="10.8166755"><ele>269.6</ele><time>2026-04-22T18:12:31.283Z</time></trkpt><trkpt lat="45.6047488" lon="10.8168427"><ele>269.4</ele><time>2026-04-22T18:12:32.283Z</time></trkpt><trkpt lat="45.6047643" lon="10.8169849"><ele>269.2</ele><time>2026-04-22T18:12:33.282Z</time></trkpt><trkpt lat="45.6047894" lon="10.8171242"><ele>269.0</ele><time>2026-04-22T18:12:34.283Z</time></trkpt><trkpt lat="45.6048374" lon="10.8172899"><ele>269.6666666666667</ele><time>2026-04-22T18:12:35.283Z</time></trkpt><trkpt lat="45.6048689" lon="10.8174299"><ele>270.33333333333337</ele><time>2026-04-22T18:12:36.282Z</time></trkpt><trkpt lat="45.604906" lon="10.8175614"><ele>271.0</ele><time>2026-04-22T18:12:37.283Z</time></trkpt><trkpt lat="45.6049036" lon="10.8176542"><ele>271.6666666666667</ele><time>2026-04-22T18:12:38.283Z</time></trkpt><trkpt lat="45.604877" lon="10.8177549"><ele>272.3333333333333</ele><time>2026-04-22T18:12:39.283Z</time></trkpt><trkpt lat="45.6048308" lon="10.817862"><ele>273.0</ele><time>2026-04-22T18:12:40.283Z</time></trkpt><trkpt lat="45.6047811" lon="10.8179886"><ele>273.2</ele><time>2026-04-22T18:12:41.282Z</time></trkpt><trkpt lat="45.6047274" lon="10.8181042"><ele>273.4</ele><time>2026-04-22T18:12:42.283Z</time></trkpt><trkpt lat="45.6046722" lon="10.8182482"><ele>273.59999999999997</ele><time>2026-04-22T18:12:43.282Z</time></trkpt><trkpt lat="45.6046079" lon="10.8183997"><ele>273.8</ele><time>2026-04-22T18:12:44.282Z</time></trkpt><trkpt lat="45.6045627" lon="10.8185363"><ele>274.0</ele><time>2026-04-22T18:12:45.282Z</time></trkpt><trkpt lat="45.6045276" lon="10.818655"><ele>273.4</ele><time>2026-04-22T18:12:46.283Z</time></trkpt><trkpt lat="45.6044943" lon="10.8187625"><ele>272.79999999999995</ele><time>2026-04-22T18:12:47.283Z</time></trkpt><trkpt lat="45.604475" lon="10.8188796"><ele>272.20000000000005</ele><time>2026-04-22T18:12:48.283Z</time></trkpt><trkpt lat="45.6044624" lon="10.819004"><ele>271.6</ele><time>2026-04-22T18:12:49.283Z</time></trkpt><trkpt lat="45.6044606" lon="10.8191478"><ele>271.0</ele><time>2026-04-22T18:12:51.283Z</time></trkpt><trkpt lat="45.6045165" lon="10.8193091"><ele>273.8</ele><time>2026-04-22T18:12:53.283Z</time></trkpt><trkpt lat="45.6045383" lon="10.819402"><ele>276.6</ele><time>2026-04-22T18:12:54.283Z</time></trkpt><trkpt lat="45.604555" lon="10.8194982"><ele>279.4</ele><time>2026-04-22T18:12:55.283Z</time></trkpt><trkpt lat="45.6045754" lon="10.8196891"><ele>282.2</ele><time>2026-04-22T18:12:57.283Z</time></trkpt><trkpt lat="45.6045795" lon="10.8198129"><ele>285.0</ele><time>2026-04-22T18:12:58.283Z</time></trkpt><trkpt lat="45.6045748" lon="10.8199448"><ele>285.0</ele><time>2026-04-22T18:12:59.283Z</time></trkpt><trkpt lat="45.6045631" lon="10.8200726"><ele>285.0</ele><time>2026-04-22T18:13:00.283Z</time></trkpt><trkpt lat="45.6045332" lon="10.8201943"><ele>285.0</ele><time>2026-04-22T18:13:01.283Z</time></trkpt><trkpt lat="45.6045085" lon="10.8203326"><ele>285.0</ele><time>2026-04-22T18:13:02.283Z</time></trkpt><trkpt lat="45.6044736" lon="10.8204663"><ele>285.0</ele><time>2026-04-22T18:13:03.283Z</time></trkpt><trkpt lat="45.6044433" lon="10.8205911"><ele>284.2</ele><time>2026-04-22T18:13:04.283Z</time></trkpt><trkpt lat="45.6044251" lon="10.8207096"><ele>283.4</ele><time>2026-04-22T18:13:05.283Z</time></trkpt><trkpt lat="45.6044101" lon="10.8208405"><ele>282.6</ele><time>2026-04-22T18:13:06.283Z</time></trkpt><trkpt lat="45.6043961" lon="10.8209747"><ele>281.8</ele><time>2026-04-22T18:13:07.282Z</time></trkpt><trkpt lat="45.6044059" lon="10.8211792"><ele>281.0</ele><time>2026-04-22T18:13:08.283Z</time></trkpt><trkpt lat="45.6044016" lon="10.8213494"><ele>281.0</ele><time>2026-04-22T18:13:09.283Z</time></trkpt><trkpt lat="45.6043976" lon="10.8214922"><ele>281.0</ele><time>2026-04-22T18:13:10.283Z</time></trkpt><trkpt lat="45.6043928" lon="10.8216268"><ele>281.0</ele><time>2026-04-22T18:13:11.283Z</time></trkpt><trkpt lat="45.6043815" lon="10.8217672"><ele>281.0</ele><time>2026-04-22T18:13:13.282Z</time></trkpt><trkpt lat="45.6044287" lon="10.8218479"><ele>281.0</ele><time>2026-04-22T18:13:16.283Z</time></trkpt><trkpt lat="45.604502" lon="10.8218198"><ele>281.0</ele><time>2026-04-22T18:13:18.283Z</time></trkpt><trkpt lat="45.6045907" lon="10.8217748"><ele>283.14285714285717</ele><time>2026-04-22T18:13:20.283Z</time></trkpt><trkpt lat="45.6046589" lon="10.8217625"><ele>285.2857142857143</ele><time>2026-04-22T18:13:21.283Z</time></trkpt><trkpt lat="45.6047267" lon="10.8217443"><ele>287.42857142857144</ele><time>2026-04-22T18:13:22.283Z</time></trkpt><trkpt lat="45.6047974" lon="10.8217462"><ele>289.57142857142856</ele><time>2026-04-22T18:13:23.283Z</time></trkpt><trkpt lat="45.6048618" lon="10.8217432"><ele>291.7142857142857</ele><time>2026-04-22T18:13:24.283Z</time></trkpt><trkpt lat="45.6049365" lon="10.8217429"><ele>293.8571428571429</ele><time>2026-04-22T18:13:25.283Z</time></trkpt><trkpt lat="45.6050005" lon="10.8217436"><ele>296.0</ele><time>2026-04-22T18:13:26.283Z</time></trkpt><trkpt lat="45.6051168" lon="10.8217287"><ele>296.0</ele><time>2026-04-22T18:13:28.283Z</time></trkpt><trkpt lat="45.6051765" lon="10.8216231"><ele>296.0</ele><time>2026-04-22T18:13:29.283Z</time></trkpt><trkpt lat="45.6052229" lon="10.8215445"><ele>296.0</ele><time>2026-04-22T18:13:30.283Z</time></trkpt><trkpt lat="45.6052906" lon="10.8214091"><ele>296.0</ele><time>2026-04-22T18:13:32.283Z</time></trkpt><trkpt lat="45.6053271" lon="10.8213252"><ele>296.0</ele><time>2026-04-22T18:13:33.283Z</time></trkpt><trkpt lat="45.6053697" lon="10.8211964"><ele>296.8</ele><time>2026-04-22T18:13:34.282Z</time></trkpt><trkpt lat="45.6054166" lon="10.8210638"><ele>297.6</ele><time>2026-04-22T18:13:35.283Z</time></trkpt><trkpt lat="45.6054781" lon="10.8209354"><ele>298.4</ele><time>2026-04-22T18:13:36.283Z</time></trkpt><trkpt lat="45.6055466" lon="10.820826"><ele>299.2</ele><time>2026-04-22T18:13:37.283Z</time></trkpt><trkpt lat="45.6056608" lon="10.8207741"><ele>300.0</ele><time>2026-04-22T18:13:38.282Z</time></trkpt><trkpt lat="45.6058101" lon="10.8207366"><ele>300.0</ele><time>2026-04-22T18:13:39.283Z</time></trkpt><trkpt lat="45.6059535" lon="10.8206963"><ele>300.0</ele><time>2026-04-22T18:13:40.283Z</time></trkpt><trkpt lat="45.6061232" lon="10.8206341"><ele>300.0</ele><time>2026-04-22T18:13:41.282Z</time></trkpt><trkpt lat="45.6062978" lon="10.8205561"><ele>301.3333333333333</ele><time>2026-04-22T18:13:42.282Z</time></trkpt><trkpt lat="45.6064687" lon="10.8204533"><ele>302.66666666666663</ele><time>2026-04-22T18:13:43.283Z</time></trkpt><trkpt lat="45.6066408" lon="10.8203353"><ele>304.0</ele><time>2026-04-22T18:13:44.283Z</time></trkpt><trkpt lat="45.6067926" lon="10.8201985"><ele>302.3333333333333</ele><time>2026-04-22T18:13:45.283Z</time></trkpt><trkpt lat="45.6069231" lon="10.8200665"><ele>300.6666666666667</ele><time>2026-04-22T18:13:46.283Z</time></trkpt><trkpt lat="45.6070349" lon="10.8199182"><ele>299.0</ele><time>2026-04-22T18:13:47.283Z</time></trkpt><trkpt lat="45.6071289" lon="10.8197417"><ele>299.0</ele><time>2026-04-22T18:13:48.283Z</time></trkpt><trkpt lat="45.6072152" lon="10.8195618"><ele>299.0</ele><time>2026-04-22T18:13:49.283Z</time></trkpt><trkpt lat="45.6072824" lon="10.8193821"><ele>299.0</ele><time>2026-04-22T18:13:50.283Z</time></trkpt><trkpt lat="45.6073511" lon="10.8192181"><ele>299.0</ele><time>2026-04-22T18:13:51.283Z</time></trkpt><trkpt lat="45.6074273" lon="10.8190568"><ele>297.6666666666667</ele><time>2026-04-22T18:13:52.282Z</time></trkpt><trkpt lat="45.6074874" lon="10.8188711"><ele>296.3333333333333</ele><time>2026-04-22T18:13:53.283Z</time></trkpt><trkpt lat="45.6075538" lon="10.8186628"><ele>295.0</ele><time>2026-04-22T18:13:54.283Z</time></trkpt><trkpt lat="45.607605" lon="10.8184482"><ele>294.25</ele><time>2026-04-22T18:13:55.283Z</time></trkpt><trkpt lat="45.607647" lon="10.818242"><ele>293.5</ele><time>2026-04-22T18:13:56.283Z</time></trkpt><trkpt lat="45.6076854" lon="10.8180466"><ele>292.75</ele><time>2026-04-22T18:13:57.283Z</time></trkpt><trkpt lat="45.607723" lon="10.8178576"><ele>292.0</ele><time>2026-04-22T18:13:58.283Z</time></trkpt><trkpt lat="45.6077612" lon="10.8176823"><ele>290.25</ele><time>2026-04-22T18:13:59.283Z</time></trkpt><trkpt lat="45.6078032" lon="10.8174935"><ele>288.5</ele><time>2026-04-22T18:14:00.283Z</time></trkpt><trkpt lat="45.6078432" lon="10.8173256"><ele>286.75</ele><time>2026-04-22T18:14:01.283Z</time></trkpt><trkpt lat="45.607882" lon="10.8171715"><ele>285.0</ele><time>2026-04-22T18:14:02.282Z</time></trkpt><trkpt lat="45.6079223" lon="10.8170369"><ele>285.0</ele><time>2026-04-22T18:14:03.283Z</time></trkpt><trkpt lat="45.607962" lon="10.8169158"><ele>285.0</ele><time>2026-04-22T18:14:04.283Z</time></trkpt><trkpt lat="45.6080045" lon="10.8168162"><ele>285.0</ele><time>2026-04-22T18:14:05.283Z</time></trkpt><trkpt lat="45.6080501" lon="10.8167397"><ele>285.0</ele><time>2026-04-22T18:14:06.283Z</time></trkpt><trkpt lat="45.6081009" lon="10.8166861"><ele>285.0</ele><time>2026-04-22T18:14:07.283Z</time></trkpt><trkpt lat="45.608226" lon="10.8166807"><ele>285.0</ele><time>2026-04-22T18:14:09.283Z</time></trkpt><trkpt lat="45.6083123" lon="10.8167457"><ele>285.0</ele><time>2026-04-22T18:14:10.283Z</time></trkpt><trkpt lat="45.6084014" lon="10.8168252"><ele>285.0</ele><time>2026-04-22T18:14:11.283Z</time></trkpt><trkpt lat="45.6085116" lon="10.8169221"><ele>285.0</ele><time>2026-04-22T18:14:12.283Z</time></trkpt><trkpt lat="45.6086303" lon="10.8169883"><ele>285.0</ele><time>2026-04-22T18:14:13.283Z</time></trkpt><trkpt lat="45.6087666" lon="10.8170656"><ele>285.25</ele><time>2026-04-22T18:14:14.283Z</time></trkpt><trkpt lat="45.6089019" lon="10.817138"><ele>285.5</ele><time>2026-04-22T18:14:15.283Z</time></trkpt><trkpt lat="45.6090408" lon="10.8172007"><ele>285.75</ele><time>2026-04-22T18:14:16.282Z</time></trkpt><trkpt lat="45.6091897" lon="10.8172554"><ele>286.0</ele><time>2026-04-22T18:14:17.283Z</time></trkpt><trkpt lat="45.6093409" lon="10.8172692"><ele>286.66666666666663</ele><time>2026-04-22T18:14:18.283Z</time></trkpt><trkpt lat="45.6094998" lon="10.817254"><ele>287.3333333333333</ele><time>2026-04-22T18:14:19.283Z</time></trkpt><trkpt lat="45.6096686" lon="10.8172221"><ele>288.0</ele><time>2026-04-22T18:14:20.283Z</time></trkpt><trkpt lat="45.6098378" lon="10.8171958"><ele>288.0</ele><time>2026-04-22T18:14:21.283Z</time></trkpt><trkpt lat="45.6100022" lon="10.8171691"><ele>288.0</ele><time>2026-04-22T18:14:22.283Z</time></trkpt><trkpt lat="45.6101508" lon="10.8171567"><ele>288.0</ele><time>2026-04-22T18:14:23.283Z</time></trkpt><trkpt lat="45.6102984" lon="10.8171856"><ele>290.75</ele><time>2026-04-22T18:14:24.283Z</time></trkpt><trkpt lat="45.6104392" lon="10.8172052"><ele>293.5</ele><time>2026-04-22T18:14:25.283Z</time></trkpt><trkpt lat="45.6105799" lon="10.8172042"><ele>296.25</ele><time>2026-04-22T18:14:26.283Z</time></trkpt><trkpt lat="45.6107192" lon="10.8171747"><ele>299.0</ele><time>2026-04-22T18:14:27.283Z</time></trkpt><trkpt lat="45.6108435" lon="10.8171331"><ele>299.0</ele><time>2026-04-22T18:14:28.283Z</time></trkpt><trkpt lat="45.6109384" lon="10.8170956"><ele>299.0</ele><time>2026-04-22T18:14:29.283Z</time></trkpt><trkpt lat="45.6110094" lon="10.8170681"><ele>299.0</ele><time>2026-04-22T18:14:30.283Z</time></trkpt><trkpt lat="45.6111083" lon="10.8170861"><ele>299.0</ele><time>2026-04-22T18:14:32.283Z</time></trkpt><trkpt lat="45.6111543" lon="10.8171688"><ele>299.0</ele><time>2026-04-22T18:14:33.283Z</time></trkpt><trkpt lat="45.6112066" lon="10.8172674"><ele>299.0</ele><time>2026-04-22T18:14:34.283Z</time></trkpt><trkpt lat="45.6112822" lon="10.8173698"><ele>299.33333333333337</ele><time>2026-04-22T18:14:35.283Z</time></trkpt><trkpt lat="45.61137" lon="10.8175379"><ele>299.6666666666667</ele><time>2026-04-22T18:14:36.283Z</time></trkpt><trkpt lat="45.6114647" lon="10.8177105"><ele>300.0</ele><time>2026-04-22T18:14:37.283Z</time></trkpt><trkpt lat="45.6115555" lon="10.8179043"><ele>301.75</ele><time>2026-04-22T18:14:38.283Z</time></trkpt><trkpt lat="45.6116472" lon="10.8180728"><ele>303.5</ele><time>2026-04-22T18:14:39.283Z</time></trkpt><trkpt lat="45.6117223" lon="10.8181913"><ele>305.25</ele><time>2026-04-22T18:14:40.283Z</time></trkpt><trkpt lat="45.611815" lon="10.8183091"><ele>307.0</ele><time>2026-04-22T18:14:41.283Z</time></trkpt><trkpt lat="45.6119307" lon="10.8184067"><ele>308.25</ele><time>2026-04-22T18:14:42.283Z</time></trkpt><trkpt lat="45.6120453" lon="10.818517"><ele>309.5</ele><time>2026-04-22T18:14:43.283Z</time></trkpt><trkpt lat="45.6121352" lon="10.8186316"><ele>310.75</ele><time>2026-04-22T18:14:44.283Z</time></trkpt><trkpt lat="45.6122285" lon="10.8187501"><ele>312.0</ele><time>2026-04-22T18:14:45.283Z</time></trkpt><trkpt lat="45.6123336" lon="10.8188946"><ele>312.0</ele><time>2026-04-22T18:14:46.283Z</time></trkpt><trkpt lat="45.6124231" lon="10.819022"><ele>312.0</ele><time>2026-04-22T18:14:47.283Z</time></trkpt><trkpt lat="45.6125125" lon="10.8191675"><ele>312.0</ele><time>2026-04-22T18:14:48.283Z</time></trkpt><trkpt lat="45.6125905" lon="10.8192772"><ele>312.0</ele><time>2026-04-22T18:14:49.283Z</time></trkpt><trkpt lat="45.6126758" lon="10.8193685"><ele>312.25</ele><time>2026-04-22T18:14:50.283Z</time></trkpt><trkpt lat="45.6127922" lon="10.819441"><ele>312.5</ele><time>2026-04-22T18:14:51.283Z</time></trkpt><trkpt lat="45.6129188" lon="10.819522"><ele>312.75</ele><time>2026-04-22T18:14:52.283Z</time></trkpt><trkpt lat="45.6130329" lon="10.8196003"><ele>313.0</ele><time>2026-04-22T18:14:53.282Z</time></trkpt><trkpt lat="45.6131433" lon="10.8196523"><ele>315.0</ele><time>2026-04-22T18:14:54.283Z</time></trkpt><trkpt lat="45.6132874" lon="10.8196949"><ele>317.0</ele><time>2026-04-22T18:14:55.283Z</time></trkpt><trkpt lat="45.6134403" lon="10.8196848"><ele>319.0</ele><time>2026-04-22T18:14:56.283Z</time></trkpt><trkpt lat="45.6135928" lon="10.8196706"><ele>320.0</ele><time>2026-04-22T18:14:57.283Z</time></trkpt><trkpt lat="45.6137324" lon="10.8196433"><ele>321.0</ele><time>2026-04-22T18:14:58.283Z</time></trkpt><trkpt lat="45.6138801" lon="10.8195809"><ele>322.0</ele><time>2026-04-22T18:14:59.283Z</time></trkpt><trkpt lat="45.6140336" lon="10.8195185"><ele>322.0</ele><time>2026-04-22T18:15:00.283Z</time></trkpt><trkpt lat="45.614171" lon="10.8194669"><ele>322.0</ele><time>2026-04-22T18:15:01.283Z</time></trkpt><trkpt lat="45.614296" lon="10.8194118"><ele>322.0</ele><time>2026-04-22T18:15:02.283Z</time></trkpt><trkpt lat="45.6144081" lon="10.819354"><ele>322.0</ele><time>2026-04-22T18:15:03.283Z</time></trkpt><trkpt lat="45.6145113" lon="10.8192934"><ele>323.5</ele><time>2026-04-22T18:15:04.282Z</time></trkpt><trkpt lat="45.6146111" lon="10.8191755"><ele>325.0</ele><time>2026-04-22T18:15:05.283Z</time></trkpt><trkpt lat="45.6147028" lon="10.819042"><ele>326.5</ele><time>2026-04-22T18:15:06.283Z</time></trkpt><trkpt lat="45.6147926" lon="10.8189171"><ele>328.0</ele><time>2026-04-22T18:15:07.283Z</time></trkpt><trkpt lat="45.6148733" lon="10.8188183"><ele>328.0</ele><time>2026-04-22T18:15:08.283Z</time></trkpt><trkpt lat="45.6149453" lon="10.8187777"><ele>328.0</ele><time>2026-04-22T18:15:09.283Z</time></trkpt><trkpt lat="45.6150324" lon="10.8187533"><ele>328.0</ele><time>2026-04-22T18:15:10.283Z</time></trkpt><trkpt lat="45.6151088" lon="10.8188173"><ele>328.0</ele><time>2026-04-22T18:15:11.283Z</time></trkpt><trkpt lat="45.6152081" lon="10.8188882"><ele>328.0</ele><time>2026-04-22T18:15:12.283Z</time></trkpt><trkpt lat="45.6153424" lon="10.8189061"><ele>330.3333333333333</ele><time>2026-04-22T18:15:13.283Z</time></trkpt><trkpt lat="45.6154935" lon="10.8189453"><ele>332.6666666666667</ele><time>2026-04-22T18:15:14.283Z</time></trkpt><trkpt lat="45.6156514" lon="10.8189746"><ele>335.0</ele><time>2026-04-22T18:15:15.283Z</time></trkpt><trkpt lat="45.6158018" lon="10.8189914"><ele>335.0</ele><time>2026-04-22T18:15:16.283Z</time></trkpt><trkpt lat="45.6159735" lon="10.8190086"><ele>335.0</ele><time>2026-04-22T18:15:17.283Z</time></trkpt><trkpt lat="45.6161292" lon="10.8190293"><ele>335.0</ele><time>2026-04-22T18:15:18.283Z</time></trkpt><trkpt lat="45.6162592" lon="10.8190159"><ele>337.33333333333337</ele><time>2026-04-22T18:15:19.283Z</time></trkpt><trkpt lat="45.6163605" lon="10.8190126"><ele>339.6666666666667</ele><time>2026-04-22T18:15:20.283Z</time></trkpt><trkpt lat="45.6164538" lon="10.8189894"><ele>342.0</ele><time>2026-04-22T18:15:21.283Z</time></trkpt><trkpt lat="45.6165269" lon="10.8189721"><ele>344.3333333333333</ele><time>2026-04-22T18:15:22.283Z</time></trkpt><trkpt lat="45.6165997" lon="10.8189889"><ele>346.66666666666663</ele><time>2026-04-22T18:15:24.283Z</time></trkpt><trkpt lat="45.6166793" lon="10.8190146"><ele>349.0</ele><time>2026-04-22T18:15:33.283Z</time></trkpt><trkpt lat="45.6167415" lon="10.819092"><ele>349.0</ele><time>2026-04-22T18:15:35.283Z</time></trkpt><trkpt lat="45.616774" lon="10.8191858"><ele>349.0</ele><time>2026-04-22T18:15:36.283Z</time></trkpt><trkpt lat="45.6168229" lon="10.8192968"><ele>349.0</ele><time>2026-04-22T18:15:37.283Z</time></trkpt><trkpt lat="45.6168795" lon="10.8194348"><ele>349.0</ele><time>2026-04-22T18:15:38.283Z</time></trkpt><trkpt lat="45.6169507" lon="10.8195924"><ele>349.0</ele><time>2026-04-22T18:15:39.283Z</time></trkpt><trkpt lat="45.6170276" lon="10.8197947"><ele>353.66666666666663</ele><time>2026-04-22T18:15:40.282Z</time></trkpt><trkpt lat="45.6170999" lon="10.8200113"><ele>358.3333333333333</ele><time>2026-04-22T18:15:41.283Z</time></trkpt><trkpt lat="45.6171644" lon="10.8202561"><ele>363.0</ele><time>2026-04-22T18:15:42.283Z</time></trkpt><trkpt lat="45.6172308" lon="10.8205356"><ele>363.0</ele><time>2026-04-22T18:15:43.283Z</time></trkpt><trkpt lat="45.6172963" lon="10.8208369"><ele>363.0</ele><time>2026-04-22T18:15:44.283Z</time></trkpt><trkpt lat="45.6173539" lon="10.8211352"><ele>363.0</ele><time>2026-04-22T18:15:45.283Z</time></trkpt><trkpt lat="45.6173892" lon="10.8214044"><ele>362.6666666666667</ele><time>2026-04-22T18:15:46.283Z</time></trkpt><trkpt lat="45.6174302" lon="10.8216458"><ele>362.33333333333337</ele><time>2026-04-22T18:15:47.283Z</time></trkpt><trkpt lat="45.6174898" lon="10.821862"><ele>362.0</ele><time>2026-04-22T18:15:48.283Z</time></trkpt><trkpt lat="45.6175628" lon="10.8220534"><ele>362.0</ele><time>2026-04-22T18:15:49.283Z</time></trkpt><trkpt lat="45.6176504" lon="10.822253"><ele>362.0</ele><time>2026-04-22T18:15:50.282Z</time></trkpt><trkpt lat="45.6177354" lon="10.8224625"><ele>362.0</ele><time>2026-04-22T18:15:51.283Z</time></trkpt><trkpt lat="45.6178201" lon="10.8226618"><ele>366.5</ele><time>2026-04-22T18:15:52.282Z</time></trkpt><trkpt lat="45.6178593" lon="10.8228273"><ele>371.0</ele><time>2026-04-22T18:15:53.283Z</time></trkpt><trkpt lat="45.6179015" lon="10.8230096"><ele>375.5</ele><time>2026-04-22T18:15:54.283Z</time></trkpt><trkpt lat="45.6179244" lon="10.8231726"><ele>380.0</ele><time>2026-04-22T18:15:55.283Z</time></trkpt><trkpt lat="45.61795" lon="10.8233442"><ele>380.6</ele><time>2026-04-22T18:15:56.283Z</time></trkpt><trkpt lat="45.6179709" lon="10.823495"><ele>381.2</ele><time>2026-04-22T18:15:57.283Z</time></trkpt><trkpt lat="45.617994" lon="10.8236294"><ele>381.79999999999995</ele><time>2026-04-22T18:15:58.283Z</time></trkpt><trkpt lat="45.6180136" lon="10.8237632"><ele>382.4</ele><time>2026-04-22T18:15:59.283Z</time></trkpt><trkpt lat="45.6180365" lon="10.823886"><ele>383.0</ele><time>2026-04-22T18:16:00.283Z</time></trkpt><trkpt lat="45.6180643" lon="10.8239989"><ele>383.0</ele><time>2026-04-22T18:16:01.282Z</time></trkpt><trkpt lat="45.6181108" lon="10.824098"><ele>383.0</ele><time>2026-04-22T18:16:02.283Z</time></trkpt><trkpt lat="45.6181799" lon="10.8241628"><ele>383.0</ele><time>2026-04-22T18:16:03.283Z</time></trkpt><trkpt lat="45.6182666" lon="10.8241988"><ele>383.0</ele><time>2026-04-22T18:16:04.282Z</time></trkpt><trkpt lat="45.6183578" lon="10.8241887"><ele>383.0</ele><time>2026-04-22T18:16:05.283Z</time></trkpt><trkpt lat="45.6184357" lon="10.8241567"><ele>383.0</ele><time>2026-04-22T18:16:06.283Z</time></trkpt><trkpt lat="45.6185063" lon="10.8240888"><ele>383.0</ele><time>2026-04-22T18:16:07.283Z</time></trkpt><trkpt lat="45.6185582" lon="10.8239909"><ele>383.0</ele><time>2026-04-22T18:16:08.283Z</time></trkpt><trkpt lat="45.6185878" lon="10.8238695"><ele>383.0</ele><time>2026-04-22T18:16:09.283Z</time></trkpt><trkpt lat="45.6185981" lon="10.8237344"><ele>383.0</ele><time>2026-04-22T18:16:10.283Z</time></trkpt><trkpt lat="45.6185958" lon="10.8235897"><ele>383.0</ele><time>2026-04-22T18:16:11.282Z</time></trkpt><trkpt lat="45.6185874" lon="10.8234367"><ele>382.25</ele><time>2026-04-22T18:16:12.282Z</time></trkpt><trkpt lat="45.6185753" lon="10.8232871"><ele>381.5</ele><time>2026-04-22T18:16:13.283Z</time></trkpt><trkpt lat="45.6185673" lon="10.8231218"><ele>380.75</ele><time>2026-04-22T18:16:14.283Z</time></trkpt><trkpt lat="45.6185615" lon="10.8229564"><ele>380.0</ele><time>2026-04-22T18:16:15.283Z</time></trkpt><trkpt lat="45.6185434" lon="10.8227718"><ele>381.33333333333337</ele><time>2026-04-22T18:16:16.283Z</time></trkpt><trkpt lat="45.6185289" lon="10.822576"><ele>382.6666666666667</ele><time>2026-04-22T18:16:17.283Z</time></trkpt><trkpt lat="45.6185139" lon="10.822362"><ele>384.0</ele><time>2026-04-22T18:16:18.283Z</time></trkpt><trkpt lat="45.6185028" lon="10.8221235"><ele>384.0</ele><time>2026-04-22T18:16:19.283Z</time></trkpt><trkpt lat="45.6184987" lon="10.8218491"><ele>384.0</ele><time>2026-04-22T18:16:20.283Z</time></trkpt><trkpt lat="45.6184994" lon="10.8215848"><ele>384.0</ele><time>2026-04-22T18:16:21.283Z</time></trkpt><trkpt lat="45.6185035" lon="10.8213422"><ele>385.25</ele><time>2026-04-22T18:16:22.283Z</time></trkpt><trkpt lat="45.6185062" lon="10.8211388"><ele>386.5</ele><time>2026-04-22T18:16:23.283Z</time></trkpt><trkpt lat="45.6184997" lon="10.8209449"><ele>387.75</ele><time>2026-04-22T18:16:24.283Z</time></trkpt><trkpt lat="45.6184987" lon="10.8207423"><ele>389.0</ele><time>2026-04-22T18:16:25.283Z</time></trkpt><trkpt lat="45.6185004" lon="10.8205399"><ele>389.79999999999995</ele><time>2026-04-22T18:16:26.283Z</time></trkpt><trkpt lat="45.6185038" lon="10.820351"><ele>390.59999999999997</ele><time>2026-04-22T18:16:27.283Z</time></trkpt><trkpt lat="45.6185036" lon="10.8201945"><ele>391.4</ele><time>2026-04-22T18:16:28.283Z</time></trkpt><trkpt lat="45.618505" lon="10.8200459"><ele>392.2</ele><time>2026-04-22T18:16:29.283Z</time></trkpt><trkpt lat="45.6185094" lon="10.8199223"><ele>393.0</ele><time>2026-04-22T18:16:30.283Z</time></trkpt><trkpt lat="45.618531" lon="10.8198046"><ele>393.0</ele><time>2026-04-22T18:16:31.283Z</time></trkpt><trkpt lat="45.6185734" lon="10.8197148"><ele>393.0</ele><time>2026-04-22T18:16:32.283Z</time></trkpt><trkpt lat="45.6186576" lon="10.8196376"><ele>393.0</ele><time>2026-04-22T18:16:33.283Z</time></trkpt><trkpt lat="45.6187449" lon="10.8196073"><ele>393.0</ele><time>2026-04-22T18:16:34.283Z</time></trkpt><trkpt lat="45.6188315" lon="10.8196275"><ele>393.0</ele><time>2026-04-22T18:16:35.283Z</time></trkpt><trkpt lat="45.6189106" lon="10.8196883"><ele>393.0</ele><time>2026-04-22T18:16:36.283Z</time></trkpt><trkpt lat="45.6189694" lon="10.8197742"><ele>397.2</ele><time>2026-04-22T18:16:37.283Z</time></trkpt><trkpt lat="45.6190037" lon="10.8198883"><ele>401.4</ele><time>2026-04-22T18:16:38.282Z</time></trkpt><trkpt lat="45.619027" lon="10.8200238"><ele>405.59999999999997</ele><time>2026-04-22T18:16:39.283Z</time></trkpt><trkpt lat="45.619035" lon="10.8201895"><ele>409.79999999999995</ele><time>2026-04-22T18:16:40.283Z</time></trkpt><trkpt lat="45.6190527" lon="10.8203648"><ele>414.0</ele><time>2026-04-22T18:16:41.283Z</time></trkpt><trkpt lat="45.6190727" lon="10.8205307"><ele>414.25</ele><time>2026-04-22T18:16:42.283Z</time></trkpt><trkpt lat="45.6190918" lon="10.8207138"><ele>414.5</ele><time>2026-04-22T18:16:43.283Z</time></trkpt><trkpt lat="45.6191078" lon="10.8208909"><ele>414.75</ele><time>2026-04-22T18:16:44.283Z</time></trkpt><trkpt lat="45.6191187" lon="10.8210683"><ele>415.0</ele><time>2026-04-22T18:16:45.282Z</time></trkpt><trkpt lat="45.6191394" lon="10.8212462"><ele>415.0</ele><time>2026-04-22T18:16:46.282Z</time></trkpt><trkpt lat="45.6191622" lon="10.8214244"><ele>415.0</ele><time>2026-04-22T18:16:47.283Z</time></trkpt><trkpt lat="45.6192022" lon="10.8215957"><ele>415.0</ele><time>2026-04-22T18:16:48.283Z</time></trkpt><trkpt lat="45.6192676" lon="10.8217467"><ele>415.0</ele><time>2026-04-22T18:16:49.283Z</time></trkpt><trkpt lat="45.6193469" lon="10.8218747"><ele>412.75</ele><time>2026-04-22T18:16:50.283Z</time></trkpt><trkpt lat="45.6194361" lon="10.8219949"><ele>410.5</ele><time>2026-04-22T18:16:51.283Z</time></trkpt><trkpt lat="45.6195219" lon="10.8221114"><ele>408.25</ele><time>2026-04-22T18:16:52.283Z</time></trkpt><trkpt lat="45.6196151" lon="10.822234"><ele>406.0</ele><time>2026-04-22T18:16:53.283Z</time></trkpt><trkpt lat="45.6197112" lon="10.8223655"><ele>409.5</ele><time>2026-04-22T18:16:54.283Z</time></trkpt><trkpt lat="45.6198087" lon="10.8224899"><ele>413.0</ele><time>2026-04-22T18:16:55.283Z</time></trkpt><trkpt lat="45.6199023" lon="10.8226255"><ele>416.5</ele><time>2026-04-22T18:16:56.283Z</time></trkpt><trkpt lat="45.620014" lon="10.8227743"><ele>420.0</ele><time>2026-04-22T18:16:57.283Z</time></trkpt><trkpt lat="45.6201247" lon="10.8229243"><ele>420.0</ele><time>2026-04-22T18:16:58.283Z</time></trkpt><trkpt lat="45.6202459" lon="10.8230708"><ele>420.0</ele><time>2026-04-22T18:16:59.283Z</time></trkpt><trkpt lat="45.6203612" lon="10.8232294"><ele>420.0</ele><time>2026-04-22T18:17:00.283Z</time></trkpt><trkpt lat="45.6204707" lon="10.8233722"><ele>421.25</ele><time>2026-04-22T18:17:01.283Z</time></trkpt><trkpt lat="45.6205854" lon="10.8235087"><ele>422.5</ele><time>2026-04-22T18:17:02.283Z</time></trkpt><trkpt lat="45.6206994" lon="10.8236226"><ele>423.75</ele><time>2026-04-22T18:17:03.283Z</time></trkpt><trkpt lat="45.6208211" lon="10.8237273"><ele>425.0</ele><time>2026-04-22T18:17:04.283Z</time></trkpt><trkpt lat="45.6209542" lon="10.8238249"><ele>425.0</ele><time>2026-04-22T18:17:05.283Z</time></trkpt><trkpt lat="45.6210764" lon="10.8239114"><ele>425.0</ele><time>2026-04-22T18:17:06.283Z</time></trkpt><trkpt lat="45.6211997" lon="10.8240164"><ele>425.0</ele><time>2026-04-22T18:17:07.283Z</time></trkpt><trkpt lat="45.6213272" lon="10.8241241"><ele>425.0</ele><time>2026-04-22T18:17:08.283Z</time></trkpt><trkpt lat="45.621449" lon="10.8242298"><ele>425.5</ele><time>2026-04-22T18:17:09.283Z</time></trkpt><trkpt lat="45.6215779" lon="10.824335"><ele>426.0</ele><time>2026-04-22T18:17:10.283Z</time></trkpt><trkpt lat="45.6217114" lon="10.8244389"><ele>426.5</ele><time>2026-04-22T18:17:11.283Z</time></trkpt><trkpt lat="45.6218402" lon="10.8245374"><ele>427.0</ele><time>2026-04-22T18:17:12.283Z</time></trkpt><trkpt lat="45.6219476" lon="10.8246325"><ele>432.5</ele><time>2026-04-22T18:17:13.282Z</time></trkpt><trkpt lat="45.622056" lon="10.8247234"><ele>438.0</ele><time>2026-04-22T18:17:14.283Z</time></trkpt><trkpt lat="45.6221641" lon="10.8248346"><ele>443.5</ele><time>2026-04-22T18:17:15.283Z</time></trkpt><trkpt lat="45.6222541" lon="10.8249682"><ele>449.0</ele><time>2026-04-22T18:17:16.283Z</time></trkpt><trkpt lat="45.6223168" lon="10.8251422"><ele>447.3333333333333</ele><time>2026-04-22T18:17:17.283Z</time></trkpt><trkpt lat="45.6223607" lon="10.8253475"><ele>445.66666666666663</ele><time>2026-04-22T18:17:18.283Z</time></trkpt><trkpt lat="45.6223922" lon="10.8255518"><ele>444.0</ele><time>2026-04-22T18:17:19.282Z</time></trkpt><trkpt lat="45.6224171" lon="10.8257709"><ele>444.5</ele><time>2026-04-22T18:17:20.283Z</time></trkpt><trkpt lat="45.6224448" lon="10.8259918"><ele>445.0</ele><time>2026-04-22T18:17:21.283Z</time></trkpt><trkpt lat="45.6224685" lon="10.8262016"><ele>445.5</ele><time>2026-04-22T18:17:22.282Z</time></trkpt><trkpt lat="45.6224934" lon="10.8263955"><ele>446.0</ele><time>2026-04-22T18:17:23.283Z</time></trkpt><trkpt lat="45.6225206" lon="10.8265995"><ele>446.0</ele><time>2026-04-22T18:17:24.282Z</time></trkpt><trkpt lat="45.6225444" lon="10.8268017"><ele>446.0</ele><time>2026-04-22T18:17:25.283Z</time></trkpt><trkpt lat="45.6225787" lon="10.8269982"><ele>446.0</ele><time>2026-04-22T18:17:26.283Z</time></trkpt><trkpt lat="45.6226267" lon="10.8271773"><ele>446.0</ele><time>2026-04-22T18:17:27.282Z</time></trkpt><trkpt lat="45.6226982" lon="10.8273404"><ele>445.5</ele><time>2026-04-22T18:17:28.283Z</time></trkpt><trkpt lat="45.6227837" lon="10.8274784"><ele>445.0</ele><time>2026-04-22T18:17:29.283Z</time></trkpt><trkpt lat="45.6228772" lon="10.827581"><ele>444.5</ele><time>2026-04-22T18:17:30.283Z</time></trkpt><trkpt lat="45.6230014" lon="10.8276491"><ele>444.0</ele><time>2026-04-22T18:17:31.283Z</time></trkpt><trkpt lat="45.623136" lon="10.8276897"><ele>443.66666666666663</ele><time>2026-04-22T18:17:32.283Z</time></trkpt><trkpt lat="45.6232803" lon="10.827703"><ele>443.3333333333333</ele><time>2026-04-22T18:17:33.283Z</time></trkpt><trkpt lat="45.6234323" lon="10.827703"><ele>443.0</ele><time>2026-04-22T18:17:34.283Z</time></trkpt><trkpt lat="45.6235863" lon="10.8277262"><ele>444.5</ele><time>2026-04-22T18:17:35.283Z</time></trkpt><trkpt lat="45.6237201" lon="10.827743"><ele>446.0</ele><time>2026-04-22T18:17:36.283Z</time></trkpt><trkpt lat="45.6238549" lon="10.8277633"><ele>447.5</ele><time>2026-04-22T18:17:37.283Z</time></trkpt><trkpt lat="45.6239934" lon="10.8277735"><ele>449.0</ele><time>2026-04-22T18:17:38.283Z</time></trkpt><trkpt lat="45.6241316" lon="10.8277856"><ele>449.0</ele><time>2026-04-22T18:17:39.283Z</time></trkpt><trkpt lat="45.6242698" lon="10.8278076"><ele>449.0</ele><time>2026-04-22T18:17:40.283Z</time></trkpt><trkpt lat="45.6244005" lon="10.8278245"><ele>449.0</ele><time>2026-04-22T18:17:41.283Z</time></trkpt><trkpt lat="45.6245444" lon="10.8278415"><ele>449.0</ele><time>2026-04-22T18:17:42.282Z</time></trkpt><trkpt lat="45.6246869" lon="10.8278477"><ele>453.0</ele><time>2026-04-22T18:17:43.283Z</time></trkpt><trkpt lat="45.6248424" lon="10.8278641"><ele>457.0</ele><time>2026-04-22T18:17:44.283Z</time></trkpt><trkpt lat="45.6249967" lon="10.8278765"><ele>461.0</ele><time>2026-04-22T18:17:45.283Z</time></trkpt><trkpt lat="45.6251506" lon="10.8278956"><ele>461.0</ele><time>2026-04-22T18:17:46.282Z</time></trkpt><trkpt lat="45.6253022" lon="10.8279103"><ele>461.0</ele><time>2026-04-22T18:17:47.283Z</time></trkpt><trkpt lat="45.6254485" lon="10.8279188"><ele>461.0</ele><time>2026-04-22T18:17:48.283Z</time></trkpt><trkpt lat="45.6255745" lon="10.8279406"><ele>461.0</ele><time>2026-04-22T18:17:49.283Z</time></trkpt><trkpt lat="45.6257012" lon="10.8279583"><ele>464.25</ele><time>2026-04-22T18:17:50.283Z</time></trkpt><trkpt lat="45.6258288" lon="10.827997"><ele>467.5</ele><time>2026-04-22T18:17:51.283Z</time></trkpt><trkpt lat="45.6259627" lon="10.8280584"><ele>470.75</ele><time>2026-04-22T18:17:52.283Z</time></trkpt><trkpt lat="45.6260892" lon="10.8281123"><ele>474.0</ele><time>2026-04-22T18:17:53.283Z</time></trkpt><trkpt lat="45.6261996" lon="10.8281579"><ele>477.25</ele><time>2026-04-22T18:17:54.282Z</time></trkpt><trkpt lat="45.6263039" lon="10.8282252"><ele>480.5</ele><time>2026-04-22T18:17:55.282Z</time></trkpt><trkpt lat="45.6264102" lon="10.8282874"><ele>483.75</ele><time>2026-04-22T18:17:56.283Z</time></trkpt><trkpt lat="45.6265265" lon="10.828341"><ele>487.0</ele><time>2026-04-22T18:17:57.283Z</time></trkpt><trkpt lat="45.6266467" lon="10.8283956"><ele>487.00000000000006</ele><time>2026-04-22T18:17:58.283Z</time></trkpt><trkpt lat="45.6267406" lon="10.8284334"><ele>487.0</ele><time>2026-04-22T18:17:59.283Z</time></trkpt><trkpt lat="45.6268256" lon="10.8284599"><ele>487.0</ele><time>2026-04-22T18:18:00.283Z</time></trkpt><trkpt lat="45.6268882" lon="10.8284772"><ele>487.0</ele><time>2026-04-22T18:18:01.283Z</time></trkpt><trkpt lat="45.626942" lon="10.8285523"><ele>487.00000000000006</ele><time>2026-04-22T18:18:04.283Z</time></trkpt><trkpt lat="45.6268903" lon="10.8286244"><ele>487.0</ele><time>2026-04-22T18:18:06.283Z</time></trkpt><trkpt lat="45.6268357" lon="10.8287133"><ele>484.83333333333337</ele><time>2026-04-22T18:18:08.283Z</time></trkpt><trkpt lat="45.6267535" lon="10.8288083"><ele>482.6666666666667</ele><time>2026-04-22T18:18:10.283Z</time></trkpt><trkpt lat="45.6266968" lon="10.8288587"><ele>480.5</ele><time>2026-04-22T18:18:11.283Z</time></trkpt><trkpt lat="45.6266296" lon="10.8288901"><ele>478.33333333333337</ele><time>2026-04-22T18:18:12.282Z</time></trkpt><trkpt lat="45.6265478" lon="10.8289159"><ele>476.1666666666667</ele><time>2026-04-22T18:18:13.283Z</time></trkpt><trkpt lat="45.6264668" lon="10.8289141"><ele>474.0</ele><time>2026-04-22T18:18:14.283Z</time></trkpt><trkpt lat="45.626383" lon="10.8289065"><ele>474.0</ele><time>2026-04-22T18:18:15.282Z</time></trkpt><trkpt lat="45.6262976" lon="10.8289015"><ele>474.0</ele><time>2026-04-22T18:18:16.283Z</time></trkpt><trkpt lat="45.6262161" lon="10.8289215"><ele>474.0</ele><time>2026-04-22T18:18:17.283Z</time></trkpt><trkpt lat="45.6261494" lon="10.8289323"><ele>474.0</ele><time>2026-04-22T18:18:18.282Z</time></trkpt><trkpt lat="45.6260465" lon="10.8289445"><ele>474.0</ele><time>2026-04-22T18:18:19.283Z</time></trkpt><trkpt lat="45.6259497" lon="10.8289491"><ele>474.0</ele><time>2026-04-22T18:18:20.283Z</time></trkpt><trkpt lat="45.6258524" lon="10.8289643"><ele>472.2</ele><time>2026-04-22T18:18:21.283Z</time></trkpt><trkpt lat="45.6257533" lon="10.8289754"><ele>470.4</ele><time>2026-04-22T18:18:22.283Z</time></trkpt><trkpt lat="45.6256598" lon="10.8289962"><ele>468.6</ele><time>2026-04-22T18:18:23.283Z</time></trkpt><trkpt lat="45.6255686" lon="10.8290185"><ele>466.8</ele><time>2026-04-22T18:18:24.283Z</time></trkpt><trkpt lat="45.6254713" lon="10.829043"><ele>465.0</ele><time>2026-04-22T18:18:25.282Z</time></trkpt><trkpt lat="45.6253727" lon="10.8290717"><ele>461.8</ele><time>2026-04-22T18:18:26.283Z</time></trkpt><trkpt lat="45.6252718" lon="10.8290717"><ele>458.6</ele><time>2026-04-22T18:18:27.283Z</time></trkpt><trkpt lat="45.6251795" lon="10.8290548"><ele>455.4</ele><time>2026-04-22T18:18:28.283Z</time></trkpt><trkpt lat="45.6250878" lon="10.8290457"><ele>452.2</ele><time>2026-04-22T18:18:29.283Z</time></trkpt><trkpt lat="45.6249825" lon="10.8290408"><ele>449.0</ele><time>2026-04-22T18:18:30.283Z</time></trkpt><trkpt lat="45.6248877" lon="10.8290521"><ele>449.0</ele><time>2026-04-22T18:18:31.283Z</time></trkpt><trkpt lat="45.624791" lon="10.8290732"><ele>449.0</ele><time>2026-04-22T18:18:32.283Z</time></trkpt><trkpt lat="45.6247042" lon="10.8291058"><ele>449.0</ele><time>2026-04-22T18:18:33.283Z</time></trkpt><trkpt lat="45.6246114" lon="10.8291266"><ele>449.0</ele><time>2026-04-22T18:18:34.283Z</time></trkpt><trkpt lat="45.6245145" lon="10.8291385"><ele>449.0</ele><time>2026-04-22T18:18:35.283Z</time></trkpt><trkpt lat="45.62444" lon="10.829127"><ele>446.2</ele><time>2026-04-22T18:18:36.283Z</time></trkpt><trkpt lat="45.6243605" lon="10.8290556"><ele>443.4</ele><time>2026-04-22T18:18:37.283Z</time></trkpt><trkpt lat="45.6242712" lon="10.8289903"><ele>440.6</ele><time>2026-04-22T18:18:38.283Z</time></trkpt><trkpt lat="45.6241674" lon="10.828928"><ele>437.8</ele><time>2026-04-22T18:18:39.282Z</time></trkpt><trkpt lat="45.6240632" lon="10.828857"><ele>435.0</ele><time>2026-04-22T18:18:40.283Z</time></trkpt><trkpt lat="45.6239563" lon="10.8288053"><ele>435.0</ele><time>2026-04-22T18:18:41.283Z</time></trkpt><trkpt lat="45.6238541" lon="10.8287581"><ele>435.0</ele><time>2026-04-22T18:18:42.283Z</time></trkpt><trkpt lat="45.6237546" lon="10.828725"><ele>435.0</ele><time>2026-04-22T18:18:43.283Z</time></trkpt><trkpt lat="45.6236572" lon="10.8287302"><ele>435.0</ele><time>2026-04-22T18:18:44.283Z</time></trkpt><trkpt lat="45.6235568" lon="10.8287545"><ele>435.0</ele><time>2026-04-22T18:18:45.283Z</time></trkpt><trkpt lat="45.6234597" lon="10.8287908"><ele>433.2</ele><time>2026-04-22T18:18:46.282Z</time></trkpt><trkpt lat="45.6233603" lon="10.8288014"><ele>431.4</ele><time>2026-04-22T18:18:47.282Z</time></trkpt><trkpt lat="45.6232614" lon="10.828789"><ele>429.6</ele><time>2026-04-22T18:18:48.283Z</time></trkpt><trkpt lat="45.6231601" lon="10.828773"><ele>427.8</ele><time>2026-04-22T18:18:49.283Z</time></trkpt><trkpt lat="45.6230569" lon="10.8287642"><ele>426.0</ele><time>2026-04-22T18:18:50.283Z</time></trkpt><trkpt lat="45.6229456" lon="10.8287476"><ele>426.0</ele><time>2026-04-22T18:18:51.282Z</time></trkpt><trkpt lat="45.6228458" lon="10.828716"><ele>426.0</ele><time>2026-04-22T18:18:52.283Z</time></trkpt><trkpt lat="45.6227454" lon="10.8286697"><ele>426.0</ele><time>2026-04-22T18:18:53.283Z</time></trkpt><trkpt lat="45.6226502" lon="10.8286103"><ele>426.0</ele><time>2026-04-22T18:18:54.283Z</time></trkpt><trkpt lat="45.6225514" lon="10.8285542"><ele>426.0</ele><time>2026-04-22T18:18:55.283Z</time></trkpt><trkpt lat="45.6224535" lon="10.8284958"><ele>427.0</ele><time>2026-04-22T18:18:56.283Z</time></trkpt><trkpt lat="45.6223514" lon="10.8284233"><ele>428.0</ele><time>2026-04-22T18:18:57.283Z</time></trkpt><trkpt lat="45.6222623" lon="10.8283558"><ele>429.0</ele><time>2026-04-22T18:18:58.283Z</time></trkpt><trkpt lat="45.6221706" lon="10.8282898"><ele>430.0</ele><time>2026-04-22T18:18:59.282Z</time></trkpt><trkpt lat="45.6220859" lon="10.8282324"><ele>431.0</ele><time>2026-04-22T18:19:00.283Z</time></trkpt><trkpt lat="45.6220016" lon="10.8281629"><ele>427.8333333333333</ele><time>2026-04-22T18:19:01.283Z</time></trkpt><trkpt lat="45.6219196" lon="10.8280931"><ele>424.66666666666663</ele><time>2026-04-22T18:19:02.283Z</time></trkpt><trkpt lat="45.6218551" lon="10.8280249"><ele>421.5</ele><time>2026-04-22T18:19:03.283Z</time></trkpt><trkpt lat="45.6217965" lon="10.8279336"><ele>418.33333333333337</ele><time>2026-04-22T18:19:04.283Z</time></trkpt><trkpt lat="45.6217484" lon="10.8278395"><ele>415.1666666666667</ele><time>2026-04-22T18:19:05.283Z</time></trkpt><trkpt lat="45.6217019" lon="10.8277484"><ele>412.0</ele><time>2026-04-22T18:19:06.283Z</time></trkpt><trkpt lat="45.6216494" lon="10.8276555"><ele>413.6666666666667</ele><time>2026-04-22T18:19:07.283Z</time></trkpt><trkpt lat="45.6215999" lon="10.8275578"><ele>415.33333333333337</ele><time>2026-04-22T18:19:08.282Z</time></trkpt><trkpt lat="45.6215447" lon="10.8274582"><ele>417.0</ele><time>2026-04-22T18:19:09.283Z</time></trkpt><trkpt lat="45.6214883" lon="10.8273694"><ele>418.66666666666663</ele><time>2026-04-22T18:19:10.283Z</time></trkpt><trkpt lat="45.6214326" lon="10.8272907"><ele>420.3333333333333</ele><time>2026-04-22T18:19:11.283Z</time></trkpt><trkpt lat="45.6213826" lon="10.8272064"><ele>422.0</ele><time>2026-04-22T18:19:12.283Z</time></trkpt><trkpt lat="45.6213294" lon="10.8271309"><ele>422.0</ele><time>2026-04-22T18:19:13.283Z</time></trkpt><trkpt lat="45.6212632" lon="10.8270595"><ele>422.0</ele><time>2026-04-22T18:19:14.283Z</time></trkpt><trkpt lat="45.6211995" lon="10.8269859"><ele>422.0</ele><time>2026-04-22T18:19:15.283Z</time></trkpt><trkpt lat="45.6211421" lon="10.8269277"><ele>422.0</ele><time>2026-04-22T18:19:16.283Z</time></trkpt><trkpt lat="45.6210879" lon="10.8268758"><ele>422.0</ele><time>2026-04-22T18:19:17.283Z</time></trkpt><trkpt lat="45.6210255" lon="10.826822"><ele>422.0</ele><time>2026-04-22T18:19:18.283Z</time></trkpt><trkpt lat="45.6209648" lon="10.8267634"><ele>422.0</ele><time>2026-04-22T18:19:19.283Z</time></trkpt><trkpt lat="45.6209009" lon="10.8267015"><ele>419.25</ele><time>2026-04-22T18:19:20.283Z</time></trkpt><trkpt lat="45.6208156" lon="10.8266177"><ele>416.5</ele><time>2026-04-22T18:19:21.283Z</time></trkpt><trkpt lat="45.6207321" lon="10.8265262"><ele>413.75</ele><time>2026-04-22T18:19:22.283Z</time></trkpt><trkpt lat="45.6206193" lon="10.8264236"><ele>411.0</ele><time>2026-04-22T18:19:23.283Z</time></trkpt><trkpt lat="45.6205004" lon="10.826333"><ele>411.0</ele><time>2026-04-22T18:19:24.283Z</time></trkpt><trkpt lat="45.6203861" lon="10.8262527"><ele>411.0</ele><time>2026-04-22T18:19:25.283Z</time></trkpt><trkpt lat="45.6202752" lon="10.8261748"><ele>411.0</ele><time>2026-04-22T18:19:26.283Z</time></trkpt><trkpt lat="45.6201722" lon="10.8260976"><ele>411.0</ele><time>2026-04-22T18:19:27.283Z</time></trkpt><trkpt lat="45.6200721" lon="10.8260283"><ele>409.20000000000005</ele><time>2026-04-22T18:19:28.283Z</time></trkpt><trkpt lat="45.6200032" lon="10.8259738"><ele>407.40000000000003</ele><time>2026-04-22T18:19:29.283Z</time></trkpt><trkpt lat="45.6199078" lon="10.8259098"><ele>405.6</ele><time>2026-04-22T18:19:30.283Z</time></trkpt><trkpt lat="45.619825" lon="10.8258443"><ele>403.8</ele><time>2026-04-22T18:19:31.283Z</time></trkpt><trkpt lat="45.6197528" lon="10.8257769"><ele>402.0</ele><time>2026-04-22T18:19:32.283Z</time></trkpt><trkpt lat="45.6196855" lon="10.8256951"><ele>402.0</ele><time>2026-04-22T18:19:33.283Z</time></trkpt><trkpt lat="45.6196289" lon="10.8256094"><ele>402.0</ele><time>2026-04-22T18:19:34.282Z</time></trkpt><trkpt lat="45.6195878" lon="10.8255256"><ele>402.0</ele><time>2026-04-22T18:19:35.283Z</time></trkpt><trkpt lat="45.6195495" lon="10.8254414"><ele>402.0</ele><time>2026-04-22T18:19:36.283Z</time></trkpt><trkpt lat="45.6195165" lon="10.8253404"><ele>402.0</ele><time>2026-04-22T18:19:37.283Z</time></trkpt><trkpt lat="45.6194788" lon="10.8252507"><ele>402.0</ele><time>2026-04-22T18:19:38.283Z</time></trkpt><trkpt lat="45.6194556" lon="10.825162"><ele>402.0</ele><time>2026-04-22T18:19:39.283Z</time></trkpt><trkpt lat="45.6193739" lon="10.8250256"><ele>400.8333333333333</ele><time>2026-04-22T18:19:41.283Z</time></trkpt><trkpt lat="45.6192911" lon="10.8249685"><ele>399.66666666666663</ele><time>2026-04-22T18:19:42.283Z</time></trkpt><trkpt lat="45.6192181" lon="10.8249316"><ele>398.5</ele><time>2026-04-22T18:19:43.283Z</time></trkpt><trkpt lat="45.6191398" lon="10.8249142"><ele>397.3333333333333</ele><time>2026-04-22T18:19:44.283Z</time></trkpt><trkpt lat="45.6190639" lon="10.8248987"><ele>396.16666666666663</ele><time>2026-04-22T18:19:45.283Z</time></trkpt><trkpt lat="45.6189889" lon="10.8249092"><ele>395.0</ele><time>2026-04-22T18:19:46.283Z</time></trkpt><trkpt lat="45.6188668" lon="10.824923"><ele>394.99999999999994</ele><time>2026-04-22T18:19:48.283Z</time></trkpt><trkpt lat="45.6188033" lon="10.8249235"><ele>395.0</ele><time>2026-04-22T18:19:49.283Z</time></trkpt><trkpt lat="45.6186988" lon="10.8249263"><ele>395.0</ele><time>2026-04-22T18:19:51.283Z</time></trkpt><trkpt lat="45.6186016" lon="10.8248939"><ele>395.0</ele><time>2026-04-22T18:19:53.283Z</time></trkpt><trkpt lat="45.618516" lon="10.8248664"><ele>394.99999999999994</ele><time>2026-04-22T18:19:55.282Z</time></trkpt><trkpt lat="45.6185224" lon="10.824745"><ele>395.0</ele><time>2026-04-22T18:20:42.283Z</time></trkpt><trkpt lat="45.6185441" lon="10.8246332"><ele>395.0</ele><time>2026-04-22T18:20:45.283Z</time></trkpt><trkpt lat="45.6185757" lon="10.8245223"><ele>395.0</ele><time>2026-04-22T18:20:48.283Z</time></trkpt><trkpt lat="45.6186038" lon="10.8244273"><ele>395.0</ele><time>2026-04-22T18:20:49.283Z</time></trkpt><trkpt lat="45.6186542" lon="10.8243339"><ele>395.0</ele><time>2026-04-22T18:20:51.283Z</time></trkpt><trkpt lat="45.6184936" lon="10.8247831"><ele>383.0</ele><time>2026-04-22T18:21:15.283Z</time></trkpt><trkpt lat="45.6185401" lon="10.824705"><ele>383.0</ele><time>2026-04-22T18:21:28.283Z</time></trkpt></trkseg></trk></gpx>